Time,TemperatureF,DewpointF,PressureIn,WindDirection,WindDirectionDegrees,WindSpeedMPH,WindSpeedGustMPH,Humidity,HourlyPrecipIn,Conditions,Clouds,dailyrainin,SoftwareType,DateUTC
2013-08-02 00:01:00,65.3,64.4,29.87,NW,322,0.0,0.0,97,0.00,,,0.24,Wunderground v.1.15,2013-08-02 04:01:00,
2013-08-02 00:02:00,65.3,64.4,29.87,NW,322,0.0,0.0,97,0.00,,,0.24,Wunderground v.1.15,2013-08-02 04:02:00,
2013-08-02 00:03:00,65.3,64.4,29.87,NW,322,0.0,0.0,97,0.00,,,0.24,Wunderground v.1.15,2013-08-02 04:03:00,
2013-08-02 00:04:00,65.2,64.3,29.87,NW,322,0.0,0.0,97,0.00,,,0.24,Wunderground v.1.15,2013-08-02 04:04:00,
2013-08-02 00:08:00,65.2,64.3,29.87,NW,322,0.0,0.0,97,0.00,,,0.24,Wunderground v.1.15,2013-08-02 04:08:00,
2013-08-02 00:09:00,65.2,64.3,29.87,NW,322,0.0,0.0,97,0.00,,,0.24,Wunderground v.1.15,2013-08-02 04:09:00,
2013-08-02 00:10:00,65.2,64.3,29.87,NW,322,0.0,0.0,97,0.00,,,0.24,Wunderground v.1.15,2013-08-02 04:10:00,
2013-08-02 00:13:00,65.1,64.2,29.87,NW,322,0.0,0.0,97,0.00,,,0.24,Wunderground v.1.15,2013-08-02 04:13:00,
2013-08-02 00:16:00,65.1,64.2,29.87,NW,322,0.0,0.0,97,0.00,,,0.24,Wunderground v.1.15,2013-08-02 04:16:00,
2013-08-02 00:19:00,65.1,64.2,29.87,NW,322,0.0,0.0,97,0.00,,,0.24,Wunderground v.1.15,2013-08-02 04:19:00,
2013-08-02 00:20:00,65.1,64.2,29.87,NW,322,0.0,0.0,97,0.00,,,0.24,Wunderground v.1.15,2013-08-02 04:20:00,
2013-08-02 00:22:00,65.1,64.2,29.87,NW,322,0.0,0.0,97,0.00,,,0.24,Wunderground v.1.15,2013-08-02 04:22:00,
2013-08-02 00:23:00,65.1,64.2,29.87,NW,322,0.0,0.0,97,0.00,,,0.24,Wunderground v.1.15,2013-08-02 04:23:00,
2013-08-02 00:25:00,65.1,64.2,29.87,NW,322,0.0,0.0,97,0.00,,,0.24,Wunderground v.1.15,2013-08-02 04:25:00,
2013-08-02 00:27:00,65.0,64.1,29.88,NW,322,0.0,0.0,97,0.00,,,0.24,Wunderground v.1.15,2013-08-02 04:27:00,
2013-08-02 00:28:00,65.0,64.1,29.87,NW,322,0.0,0.0,97,0.00,,,0.24,Wunderground v.1.15,2013-08-02 04:28:00,
2013-08-02 00:30:00,65.0,64.1,29.87,NW,322,0.0,0.0,97,0.00,,,0.24,Wunderground v.1.15,2013-08-02 04:30:00,
2013-08-02 00:31:00,65.0,64.1,29.87,NW,322,0.0,0.0,97,0.00,,,0.24,Wunderground v.1.15,2013-08-02 04:31:00,
2013-08-02 00:32:00,65.0,64.1,29.87,NW,322,0.0,0.0,97,0.00,,,0.24,Wunderground v.1.15,2013-08-02 04:32:00,
2013-08-02 00:33:00,64.9,64.0,29.87,NW,322,0.0,0.0,97,0.00,,,0.24,Wunderground v.1.15,2013-08-02 04:33:00,
2013-08-02 00:37:00,64.9,64.0,29.87,NW,322,0.0,0.0,97,0.00,,,0.24,Wunderground v.1.15,2013-08-02 04:37:00,
2013-08-02 00:39:00,64.8,63.9,29.88,NW,322,0.0,0.0,97,0.00,,,0.24,Wunderground v.1.15,2013-08-02 04:39:00,
2013-08-02 00:40:00,64.8,63.9,29.88,NW,322,0.0,0.0,97,0.00,,,0.24,Wunderground v.1.15,2013-08-02 04:40:00,
2013-08-02 00:42:00,64.8,63.9,29.88,NW,322,0.0,0.0,97,0.00,,,0.24,Wunderground v.1.15,2013-08-02 04:42:00,
2013-08-02 00:43:00,64.7,63.8,29.87,NW,322,0.0,0.0,97,0.00,,,0.24,Wunderground v.1.15,2013-08-02 04:43:00,
2013-08-02 00:45:00,64.7,64.1,29.87,NW,322,0.0,0.0,98,0.00,,,0.24,Wunderground v.1.15,2013-08-02 04:45:00,
2013-08-02 00:46:00,64.7,64.1,29.87,NW,322,0.0,0.0,98,0.00,,,0.24,Wunderground v.1.15,2013-08-02 04:46:00,
2013-08-02 00:48:00,64.6,64.0,29.88,NW,322,0.0,0.0,98,0.00,,,0.24,Wunderground v.1.15,2013-08-02 04:48:00,
2013-08-02 00:50:00,64.5,63.9,29.87,NW,322,0.0,0.0,98,0.00,,,0.24,Wunderground v.1.15,2013-08-02 04:50:00,
2013-08-02 00:52:00,64.5,63.6,29.87,NW,322,0.0,0.0,97,0.00,,,0.24,Wunderground v.1.15,2013-08-02 04:52:00,
2013-08-02 00:53:00,64.5,63.6,29.87,NW,322,0.0,0.0,97,0.00,,,0.24,Wunderground v.1.15,2013-08-02 04:53:00,
2013-08-02 00:58:00,64.6,64.0,29.88,NW,322,0.0,0.0,98,0.00,,,0.24,Wunderground v.1.15,2013-08-02 04:58:00,
2013-08-02 00:59:00,64.6,64.0,29.88,NW,322,0.0,0.0,98,0.00,,,0.24,Wunderground v.1.15,2013-08-02 04:59:00,
2013-08-02 01:00:00,64.5,63.9,29.88,NW,322,0.0,0.0,98,0.00,,,0.24,Wunderground v.1.15,2013-08-02 05:00:00,
2013-08-02 01:01:00,64.5,63.9,29.88,NW,322,0.0,0.0,98,0.00,,,0.24,Wunderground v.1.15,2013-08-02 05:01:00,
2013-08-02 01:04:00,64.5,63.9,29.88,NW,322,0.0,0.0,98,0.00,,,0.24,Wunderground v.1.15,2013-08-02 05:04:00,
2013-08-02 01:06:00,64.5,63.9,29.88,NW,322,0.0,0.0,98,0.00,,,0.24,Wunderground v.1.15,2013-08-02 05:06:00,
2013-08-02 01:07:00,64.5,63.9,29.88,NW,322,0.0,0.0,98,0.00,,,0.24,Wunderground v.1.15,2013-08-02 05:07:00,
2013-08-02 01:11:00,64.5,63.9,29.88,NW,322,0.0,0.0,98,0.00,,,0.00,Wunderground v.1.15,2013-08-02 05:11:00,
2013-08-02 01:13:00,64.5,63.9,29.88,NW,322,0.0,0.0,98,0.00,,,0.00,Wunderground v.1.15,2013-08-02 05:13:00,
2013-08-02 01:15:00,64.4,63.8,29.88,NW,322,0.0,0.0,98,0.00,,,0.00,Wunderground v.1.15,2013-08-02 05:15:00,
2013-08-02 01:16:00,64.4,63.8,29.88,NW,322,0.0,0.0,98,0.00,,,0.00,Wunderground v.1.15,2013-08-02 05:16:00,
2013-08-02 01:18:00,64.4,63.8,29.88,NW,322,0.0,0.0,98,0.00,,,0.00,Wunderground v.1.15,2013-08-02 05:18:00,
2013-08-02 01:19:00,64.4,63.8,29.88,NW,322,0.0,0.0,98,0.00,,,0.00,Wunderground v.1.15,2013-08-02 05:19:00,
2013-08-02 01:22:00,64.3,63.7,29.87,NW,322,0.0,0.0,98,0.00,,,0.00,Wunderground v.1.15,2013-08-02 05:22:00,
2013-08-02 01:23:00,64.3,63.7,29.87,NW,322,0.0,0.0,98,0.00,,,0.00,Wunderground v.1.15,2013-08-02 05:23:00,
2013-08-02 01:28:00,64.3,63.7,29.87,NW,322,0.0,0.0,98,0.00,,,0.00,Wunderground v.1.15,2013-08-02 05:28:00,
2013-08-02 01:29:00,64.3,63.7,29.87,NW,322,0.0,0.0,98,0.00,,,0.00,Wunderground v.1.15,2013-08-02 05:29:00,
2013-08-02 01:31:00,64.2,63.6,29.87,NW,322,0.0,0.0,98,0.00,,,0.00,Wunderground v.1.15,2013-08-02 05:31:00,
2013-08-02 01:33:00,64.0,63.4,29.87,NW,322,0.0,0.0,98,0.00,,,0.00,Wunderground v.1.15,2013-08-02 05:33:00,
2013-08-02 01:35:00,63.9,63.3,29.87,NW,322,0.0,0.0,98,0.00,,,0.00,Wunderground v.1.15,2013-08-02 05:35:00,
2013-08-02 01:38:00,63.9,63.0,29.87,NW,323,0.0,0.0,97,0.00,,,0.00,Wunderground v.1.15,2013-08-02 05:38:00,
2013-08-02 01:40:00,63.9,63.0,29.87,NW,323,0.0,0.0,97,0.00,,,0.00,Wunderground v.1.15,2013-08-02 05:40:00,
2013-08-02 01:43:00,63.8,62.9,29.87,NW,323,0.0,0.0,97,0.00,,,0.00,Wunderground v.1.15,2013-08-02 05:43:00,
2013-08-02 01:44:00,63.8,62.9,29.87,NW,323,0.0,0.0,97,0.00,,,0.00,Wunderground v.1.15,2013-08-02 05:44:00,
2013-08-02 01:45:00,63.8,62.9,29.87,NW,323,0.0,0.0,97,0.00,,,0.00,Wunderground v.1.15,2013-08-02 05:45:00,
2013-08-02 01:47:00,63.9,63.0,29.88,NW,323,0.0,0.0,97,0.00,,,0.00,Wunderground v.1.15,2013-08-02 05:47:00,
2013-08-02 01:49:00,63.9,63.0,29.87,NW,323,0.0,0.0,97,0.00,,,0.00,Wunderground v.1.15,2013-08-02 05:49:00,
2013-08-02 01:50:00,63.9,63.0,29.88,NW,323,0.0,0.0,97,0.00,,,0.00,Wunderground v.1.15,2013-08-02 05:50:00,
2013-08-02 01:51:00,63.9,63.0,29.87,NW,323,0.0,0.0,97,0.00,,,0.00,Wunderground v.1.15,2013-08-02 05:51:00,
2013-08-02 01:54:00,64.0,63.4,29.87,NNW,329,0.0,0.0,98,0.00,,,0.00,Wunderground v.1.15,2013-08-02 05:54:00,
2013-08-02 01:55:00,64.0,63.4,29.87,NNW,329,0.0,0.0,98,0.00,,,0.00,Wunderground v.1.15,2013-08-02 05:55:00,
2013-08-02 01:57:00,64.0,63.4,29.87,NNW,329,0.0,0.0,98,0.00,,,0.00,Wunderground v.1.15,2013-08-02 05:57:00,
2013-08-02 01:59:00,64.0,63.4,29.87,NW,325,0.0,0.0,98,0.00,,,0.00,Wunderground v.1.15,2013-08-02 05:59:00,
2013-08-02 02:02:00,64.0,63.1,29.87,NW,326,0.0,0.0,97,0.00,,,0.00,Wunderground v.1.15,2013-08-02 06:02:00,
2013-08-02 02:03:00,64.0,63.1,29.87,NW,326,0.0,0.0,97,0.00,,,0.00,Wunderground v.1.15,2013-08-02 06:03:00,
2013-08-02 02:04:00,64.0,63.1,29.87,NNE,26,0.0,3.0,97,0.00,,,0.00,Wunderground v.1.15,2013-08-02 06:04:00,
2013-08-02 02:05:00,64.0,63.1,29.87,North,355,0.0,3.0,97,0.00,,,0.00,Wunderground v.1.15,2013-08-02 06:05:00,
2013-08-02 02:06:00,64.0,63.1,29.87,North,355,0.0,3.0,97,0.00,,,0.00,Wunderground v.1.15,2013-08-02 06:06:00,
2013-08-02 02:08:00,64.0,63.1,29.87,North,355,0.0,3.0,97,0.00,,,0.00,Wunderground v.1.15,2013-08-02 06:08:00,
2013-08-02 02:09:00,64.0,63.1,29.87,NW,326,0.0,3.0,97,0.00,,,0.00,Wunderground v.1.15,2013-08-02 06:09:00,
2013-08-02 02:13:00,64.0,63.1,29.87,NNW,329,0.0,3.0,97,0.00,,,0.00,Wunderground v.1.15,2013-08-02 06:13:00,
2013-08-02 02:14:00,64.0,63.1,29.87,NNW,329,0.0,3.0,97,0.00,,,0.00,Wunderground v.1.15,2013-08-02 06:14:00,
2013-08-02 02:16:00,64.0,63.1,29.87,NNW,329,0.0,3.0,97,0.00,,,0.00,Wunderground v.1.15,2013-08-02 06:16:00,
2013-08-02 02:17:00,64.0,63.1,29.87,NNW,329,0.0,3.0,97,0.00,,,0.00,Wunderground v.1.15,2013-08-02 06:17:00,
2013-08-02 02:19:00,64.0,63.1,29.87,NNW,329,0.0,3.0,97,0.00,,,0.00,Wunderground v.1.15,2013-08-02 06:19:00,
2013-08-02 02:21:00,64.0,63.1,29.87,NNW,329,0.0,3.0,97,0.00,,,0.00,Wunderground v.1.15,2013-08-02 06:21:00,
2013-08-02 02:24:00,64.0,63.1,29.87,NNW,329,0.0,3.0,97,0.00,,,0.00,Wunderground v.1.15,2013-08-02 06:24:00,
2013-08-02 02:26:00,64.1,63.2,29.87,NNW,329,0.0,3.0,97,0.00,,,0.00,Wunderground v.1.15,2013-08-02 06:26:00,
2013-08-02 02:29:00,64.1,63.2,29.87,NNW,329,0.0,3.0,97,0.00,,,0.00,Wunderground v.1.15,2013-08-02 06:29:00,
2013-08-02 02:30:00,64.1,62.9,29.87,NNW,329,0.0,3.0,96,0.00,,,0.00,Wunderground v.1.15,2013-08-02 06:30:00,
2013-08-02 02:34:00,64.1,62.9,29.87,NNW,329,0.0,3.0,96,0.00,,,0.00,Wunderground v.1.15,2013-08-02 06:34:00,
2013-08-02 02:35:00,64.1,62.9,29.87,NNW,329,0.0,3.0,96,0.00,,,0.00,Wunderground v.1.15,2013-08-02 06:35:00,
2013-08-02 02:37:00,64.1,62.9,29.87,NNW,329,0.0,3.0,96,0.00,,,0.00,Wunderground v.1.15,2013-08-02 06:37:00,
2013-08-02 02:40:00,64.1,62.9,29.87,NNW,329,0.0,3.0,96,0.00,,,0.00,Wunderground v.1.15,2013-08-02 06:40:00,
2013-08-02 02:41:00,64.1,62.9,29.87,NNW,329,0.0,3.0,96,0.00,,,0.00,Wunderground v.1.15,2013-08-02 06:41:00,
2013-08-02 02:42:00,64.1,62.9,29.87,NNW,329,0.0,3.0,96,0.00,,,0.00,Wunderground v.1.15,2013-08-02 06:42:00,
2013-08-02 02:45:00,64.1,62.9,29.87,NNW,329,0.0,3.0,96,0.00,,,0.00,Wunderground v.1.15,2013-08-02 06:45:00,
2013-08-02 02:47:00,64.1,62.9,29.87,NNW,329,0.0,3.0,96,0.00,,,0.00,Wunderground v.1.15,2013-08-02 06:47:00,
2013-08-02 02:48:00,64.1,62.9,29.87,NNW,329,0.0,3.0,96,0.00,,,0.00,Wunderground v.1.15,2013-08-02 06:48:00,
2013-08-02 02:50:00,64.1,62.9,29.87,NNW,329,0.0,0.0,96,0.00,,,0.00,Wunderground v.1.15,2013-08-02 06:50:00,
2013-08-02 02:53:00,64.2,63.0,29.87,NNW,329,0.0,0.0,96,0.00,,,0.00,Wunderground v.1.15,2013-08-02 06:53:00,
2013-08-02 02:54:00,64.3,63.1,29.87,NNW,329,0.0,0.0,96,0.00,,,0.00,Wunderground v.1.15,2013-08-02 06:54:00,
2013-08-02 02:58:00,64.3,62.8,29.87,NNW,329,0.0,0.0,95,0.00,,,0.00,Wunderground v.1.15,2013-08-02 06:58:00,
2013-08-02 02:59:00,64.3,62.8,29.87,NNW,329,0.0,0.0,95,0.00,,,0.00,Wunderground v.1.15,2013-08-02 06:59:00,
2013-08-02 03:00:00,64.4,62.9,29.87,NNW,329,0.0,0.0,95,0.00,,,0.00,Wunderground v.1.15,2013-08-02 07:00:00,
2013-08-02 03:03:00,64.4,62.9,29.87,NNW,329,0.0,0.0,95,0.00,,,0.00,Wunderground v.1.15,2013-08-02 07:03:00,
2013-08-02 03:06:00,64.4,62.9,29.87,NNW,329,0.0,0.0,95,0.00,,,0.00,Wunderground v.1.15,2013-08-02 07:06:00,
2013-08-02 03:08:00,64.4,62.9,29.87,NNW,331,0.0,0.0,95,0.00,,,0.00,Wunderground v.1.15,2013-08-02 07:08:00,
2013-08-02 03:09:00,64.4,62.9,29.87,NNW,331,0.0,0.0,95,0.00,,,0.00,Wunderground v.1.15,2013-08-02 07:09:00,
2013-08-02 03:10:00,64.4,62.6,29.87,NNW,330,0.0,0.0,94,0.00,,,0.00,Wunderground v.1.15,2013-08-02 07:10:00,
2013-08-02 03:14:00,64.4,62.6,29.87,NNW,331,0.0,2.0,94,0.00,,,0.00,Wunderground v.1.15,2013-08-02 07:14:00,
2013-08-02 03:16:00,64.4,62.6,29.87,NNW,331,0.0,2.0,94,0.00,,,0.00,Wunderground v.1.15,2013-08-02 07:16:00,
2013-08-02 03:17:00,64.4,62.6,29.87,NNW,331,0.0,2.0,94,0.00,,,0.00,Wunderground v.1.15,2013-08-02 07:17:00,
2013-08-02 03:18:00,64.4,62.6,29.87,NNW,330,0.0,2.0,94,0.00,,,0.00,Wunderground v.1.15,2013-08-02 07:18:00,
2013-08-02 03:21:00,64.5,62.7,29.87,NNW,330,0.0,2.0,94,0.00,,,0.00,Wunderground v.1.15,2013-08-02 07:21:00,
2013-08-02 03:23:00,64.4,62.6,29.87,NNW,330,0.0,2.0,94,0.00,,,0.00,Wunderground v.1.15,2013-08-02 07:23:00,
2013-08-02 03:24:00,64.3,62.5,29.87,NNW,330,0.0,2.0,94,0.00,,,0.00,Wunderground v.1.15,2013-08-02 07:24:00,
2013-08-02 03:27:00,64.0,62.2,29.87,NNW,330,0.0,2.0,94,0.00,,,0.00,Wunderground v.1.15,2013-08-02 07:27:00,
2013-08-02 03:28:00,63.8,62.0,29.87,NNW,330,0.0,2.0,94,0.00,,,0.00,Wunderground v.1.15,2013-08-02 07:28:00,
2013-08-02 03:29:00,63.8,62.0,29.87,NNW,330,0.0,2.0,94,0.00,,,0.00,Wunderground v.1.15,2013-08-02 07:29:00,
2013-08-02 03:33:00,63.4,61.6,29.87,NNW,330,0.0,2.0,94,0.00,,,0.00,Wunderground v.1.15,2013-08-02 07:33:00,
2013-08-02 03:35:00,63.2,61.4,29.87,NNW,330,0.0,2.0,94,0.00,,,0.00,Wunderground v.1.15,2013-08-02 07:35:00,
2013-08-02 03:39:00,62.9,61.4,29.87,NNW,330,0.0,2.0,95,0.00,,,0.00,Wunderground v.1.15,2013-08-02 07:39:00,
2013-08-02 03:40:00,62.9,61.4,29.87,NNW,330,0.0,2.0,95,0.00,,,0.00,Wunderground v.1.15,2013-08-02 07:40:00,
2013-08-02 03:42:00,62.7,61.2,29.87,NNW,330,0.0,2.0,95,0.00,,,0.00,Wunderground v.1.15,2013-08-02 07:42:00,
2013-08-02 03:46:00,62.5,61.0,29.87,NNW,330,0.0,2.0,95,0.00,,,0.00,Wunderground v.1.15,2013-08-02 07:46:00,
2013-08-02 03:47:00,62.5,61.0,29.87,NNW,330,0.0,2.0,95,0.00,,,0.00,Wunderground v.1.15,2013-08-02 07:47:00,
2013-08-02 03:49:00,62.5,61.0,29.87,NNW,330,0.0,2.0,95,0.00,,,0.00,Wunderground v.1.15,2013-08-02 07:49:00,
2013-08-02 03:50:00,62.5,61.0,29.87,NNW,330,0.0,0.0,95,0.00,,,0.00,Wunderground v.1.15,2013-08-02 07:50:00,
2013-08-02 03:52:00,62.5,61.3,29.87,NNW,330,0.0,0.0,96,0.00,,,0.00,Wunderground v.1.15,2013-08-02 07:52:00,
2013-08-02 03:55:00,62.5,61.3,29.87,NNW,330,0.0,0.0,96,0.00,,,0.00,Wunderground v.1.15,2013-08-02 07:55:00,
2013-08-02 03:59:00,62.6,61.4,29.87,NNW,330,0.0,0.0,96,0.00,,,0.00,Wunderground v.1.15,2013-08-02 07:59:00,
2013-08-02 04:01:00,62.6,61.4,29.87,NNW,330,0.0,0.0,96,0.00,,,0.00,Wunderground v.1.15,2013-08-02 08:01:00,
2013-08-02 04:02:00,62.6,61.4,29.87,NNW,330,0.0,0.0,96,0.00,,,0.00,Wunderground v.1.15,2013-08-02 08:02:00,
2013-08-02 04:03:00,62.5,61.3,29.87,NNW,330,0.0,0.0,96,0.00,,,0.00,Wunderground v.1.15,2013-08-02 08:03:00,
2013-08-02 04:09:00,62.5,61.3,29.88,NNW,330,0.0,0.0,96,0.00,,,0.00,Wunderground v.1.15,2013-08-02 08:09:00,
2013-08-02 04:10:00,62.5,61.6,29.88,NNW,330,0.0,0.0,97,0.00,,,0.00,Wunderground v.1.15,2013-08-02 08:10:00,
2013-08-02 04:11:00,62.5,61.6,29.88,NNW,330,0.0,0.0,97,0.00,,,0.00,Wunderground v.1.15,2013-08-02 08:11:00,
2013-08-02 04:12:00,62.5,61.6,29.88,NNW,330,0.0,0.0,97,0.00,,,0.00,Wunderground v.1.15,2013-08-02 08:12:00,
2013-08-02 04:14:00,62.5,61.3,29.88,NNW,330,0.0,0.0,96,0.00,,,0.00,Wunderground v.1.15,2013-08-02 08:14:00,
2013-08-02 04:15:00,62.5,61.3,29.88,NNW,330,0.0,0.0,96,0.00,,,0.00,Wunderground v.1.15,2013-08-02 08:15:00,
2013-08-02 04:17:00,62.4,61.5,29.88,NNW,330,0.0,0.0,97,0.00,,,0.00,Wunderground v.1.15,2013-08-02 08:17:00,
2013-08-02 04:19:00,62.4,61.5,29.88,NNW,330,0.0,0.0,97,0.00,,,0.00,Wunderground v.1.15,2013-08-02 08:19:00,
2013-08-02 04:21:00,62.4,61.5,29.88,NNW,330,0.0,0.0,97,0.00,,,0.00,Wunderground v.1.15,2013-08-02 08:21:00,
2013-08-02 04:23:00,62.4,61.5,29.88,NNW,330,0.0,0.0,97,0.00,,,0.00,Wunderground v.1.15,2013-08-02 08:23:00,
2013-08-02 04:25:00,62.4,61.5,29.88,NNW,330,0.0,0.0,97,0.00,,,0.00,Wunderground v.1.15,2013-08-02 08:25:00,
2013-08-02 04:26:00,62.4,61.5,29.89,NNW,330,0.0,0.0,97,0.00,,,0.00,Wunderground v.1.15,2013-08-02 08:26:00,
2013-08-02 04:30:00,62.4,61.5,29.89,NNW,330,0.0,0.0,97,0.00,,,0.00,Wunderground v.1.15,2013-08-02 08:30:00,
2013-08-02 04:31:00,62.3,61.4,29.89,NNW,330,0.0,0.0,97,0.00,,,0.00,Wunderground v.1.15,2013-08-02 08:31:00,
2013-08-02 04:35:00,62.3,61.4,29.89,NNW,330,0.0,0.0,97,0.00,,,0.00,Wunderground v.1.15,2013-08-02 08:35:00,
2013-08-02 04:36:00,62.3,61.4,29.89,NNW,330,0.0,0.0,97,0.00,,,0.00,Wunderground v.1.15,2013-08-02 08:36:00,
2013-08-02 04:38:00,62.2,61.3,29.89,NNW,330,0.0,0.0,97,0.00,,,0.00,Wunderground v.1.15,2013-08-02 08:38:00,
2013-08-02 04:39:00,62.2,61.3,29.89,NNW,330,0.0,0.0,97,0.00,,,0.00,Wunderground v.1.15,2013-08-02 08:39:00,
2013-08-02 04:42:00,62.1,61.2,29.89,NNW,330,0.0,0.0,97,0.00,,,0.00,Wunderground v.1.15,2013-08-02 08:42:00,
2013-08-02 04:43:00,62.1,61.2,29.89,NNW,330,0.0,0.0,97,0.00,,,0.00,Wunderground v.1.15,2013-08-02 08:43:00,
2013-08-02 04:44:00,62.1,61.2,29.89,NNW,330,0.0,0.0,97,0.00,,,0.00,Wunderground v.1.15,2013-08-02 08:44:00,
2013-08-02 04:45:00,62.1,61.2,29.89,NNW,330,0.0,0.0,97,0.00,,,0.00,Wunderground v.1.15,2013-08-02 08:45:00,
2013-08-02 04:47:00,62.1,61.2,29.89,NNW,330,0.0,0.0,97,0.00,,,0.00,Wunderground v.1.15,2013-08-02 08:47:00,
2013-08-02 04:50:00,62.2,61.3,29.89,NNW,330,0.0,0.0,97,0.00,,,0.00,Wunderground v.1.15,2013-08-02 08:50:00,
2013-08-02 04:53:00,62.1,61.2,29.89,NNW,330,0.0,0.0,97,0.00,,,0.00,Wunderground v.1.15,2013-08-02 08:53:00,
2013-08-02 04:54:00,62.1,61.2,29.89,NNW,330,0.0,0.0,97,0.00,,,0.00,Wunderground v.1.15,2013-08-02 08:54:00,
2013-08-02 04:55:00,62.1,61.2,29.89,NNW,330,0.0,0.0,97,0.00,,,0.00,Wunderground v.1.15,2013-08-02 08:55:00,
2013-08-02 04:56:00,62.1,61.2,29.89,NNW,330,0.0,0.0,97,0.00,,,0.00,Wunderground v.1.15,2013-08-02 08:56:00,
2013-08-02 04:58:00,62.0,61.1,29.89,NNW,330,0.0,0.0,97,0.00,,,0.00,Wunderground v.1.15,2013-08-02 08:58:00,
2013-08-02 05:01:00,62.0,61.1,29.89,NNW,330,0.0,0.0,97,0.00,,,0.00,Wunderground v.1.15,2013-08-02 09:01:00,
2013-08-02 05:02:00,62.0,61.1,29.89,NNW,330,0.0,0.0,97,0.00,,,0.00,Wunderground v.1.15,2013-08-02 09:02:00,
2013-08-02 05:04:00,62.0,61.1,29.89,NNW,330,0.0,0.0,97,0.00,,,0.00,Wunderground v.1.15,2013-08-02 09:04:00,
2013-08-02 05:06:00,62.0,61.1,29.89,NNW,330,0.0,0.0,97,0.00,,,0.00,Wunderground v.1.15,2013-08-02 09:06:00,
2013-08-02 05:07:00,62.0,61.1,29.89,NNW,330,0.0,0.0,97,0.00,,,0.00,Wunderground v.1.15,2013-08-02 09:07:00,
2013-08-02 05:10:00,62.0,61.1,29.89,NNW,330,0.0,0.0,97,0.00,,,0.00,Wunderground v.1.15,2013-08-02 09:10:00,
2013-08-02 05:12:00,61.9,61.0,29.89,NNW,330,0.0,0.0,97,0.00,,,0.00,Wunderground v.1.15,2013-08-02 09:12:00,
2013-08-02 05:13:00,61.9,61.0,29.89,NNW,330,0.0,0.0,97,0.00,,,0.00,Wunderground v.1.15,2013-08-02 09:13:00,
2013-08-02 05:15:00,61.9,61.0,29.89,NNW,330,0.0,0.0,97,0.00,,,0.00,Wunderground v.1.15,2013-08-02 09:15:00,
2013-08-02 05:17:00,61.9,61.0,29.89,NNW,330,0.0,0.0,97,0.00,,,0.00,Wunderground v.1.15,2013-08-02 09:17:00,
2013-08-02 05:18:00,61.9,61.0,29.89,NNW,330,0.0,0.0,97,0.00,,,0.00,Wunderground v.1.15,2013-08-02 09:18:00,
2013-08-02 05:19:00,61.9,61.0,29.89,NNW,330,0.0,0.0,97,0.00,,,0.00,Wunderground v.1.15,2013-08-02 09:19:00,
2013-08-02 05:21:00,61.8,60.9,29.89,NNW,330,0.0,0.0,97,0.00,,,0.00,Wunderground v.1.15,2013-08-02 09:21:00,
2013-08-02 05:23:00,61.8,60.9,29.90,NNW,330,0.0,0.0,97,0.00,,,0.00,Wunderground v.1.15,2013-08-02 09:23:00,
2013-08-02 05:26:00,61.8,60.9,29.90,NNW,330,0.0,0.0,97,0.00,,,0.00,Wunderground v.1.15,2013-08-02 09:26:00,
2013-08-02 05:27:00,61.8,60.9,29.90,NNW,330,0.0,0.0,97,0.00,,,0.00,Wunderground v.1.15,2013-08-02 09:27:00,
2013-08-02 05:29:00,61.8,60.9,29.90,NNW,330,0.0,0.0,97,0.00,,,0.00,Wunderground v.1.15,2013-08-02 09:29:00,
2013-08-02 05:32:00,61.8,60.9,29.90,NNW,330,0.0,0.0,97,0.00,,,0.00,Wunderground v.1.15,2013-08-02 09:32:00,
2013-08-02 05:33:00,61.8,60.9,29.90,NNW,330,0.0,0.0,97,0.00,,,0.00,Wunderground v.1.15,2013-08-02 09:33:00,
2013-08-02 05:34:00,61.8,60.9,29.90,NNW,330,0.0,0.0,97,0.00,,,0.00,Wunderground v.1.15,2013-08-02 09:34:00,
2013-08-02 05:36:00,61.8,60.9,29.90,NNW,330,0.0,0.0,97,0.00,,,0.00,Wunderground v.1.15,2013-08-02 09:36:00,
2013-08-02 05:38:00,61.8,60.9,29.90,NNW,330,0.0,0.0,97,0.00,,,0.00,Wunderground v.1.15,2013-08-02 09:38:00,
2013-08-02 05:39:00,61.8,60.9,29.90,NNW,330,0.0,0.0,97,0.00,,,0.00,Wunderground v.1.15,2013-08-02 09:39:00,
2013-08-02 05:40:00,61.7,60.8,29.90,NNW,330,0.0,0.0,97,0.00,,,0.00,Wunderground v.1.15,2013-08-02 09:40:00,
2013-08-02 05:43:00,61.7,60.8,29.90,NNW,330,0.0,0.0,97,0.00,,,0.00,Wunderground v.1.15,2013-08-02 09:43:00,
2013-08-02 05:46:00,61.7,60.8,29.90,NNW,330,0.0,0.0,97,0.00,,,0.00,Wunderground v.1.15,2013-08-02 09:46:00,
2013-08-02 05:48:00,61.7,60.8,29.90,NNW,330,0.0,0.0,97,0.00,,,0.00,Wunderground v.1.15,2013-08-02 09:48:00,
2013-08-02 05:51:00,61.6,61.0,29.90,NNW,330,0.0,0.0,98,0.00,,,0.00,Wunderground v.1.15,2013-08-02 09:51:00,
2013-08-02 05:53:00,61.6,61.0,29.90,NNW,330,0.0,0.0,98,0.00,,,0.00,Wunderground v.1.15,2013-08-02 09:53:00,
2013-08-02 05:54:00,61.6,61.0,29.90,NNW,330,0.0,0.0,98,0.00,,,0.00,Wunderground v.1.15,2013-08-02 09:54:00,
2013-08-02 05:56:00,61.6,61.0,29.90,NNW,330,0.0,0.0,98,0.00,,,0.00,Wunderground v.1.15,2013-08-02 09:56:00,
2013-08-02 05:57:00,61.5,60.9,29.90,NNW,330,0.0,0.0,98,0.00,,,0.00,Wunderground v.1.15,2013-08-02 09:57:00,
2013-08-02 06:00:00,61.5,60.9,29.90,NNW,330,0.0,0.0,98,0.00,,,0.00,Wunderground v.1.15,2013-08-02 10:00:00,
2013-08-02 06:02:00,61.4,60.8,29.90,NNW,330,0.0,0.0,98,0.00,,,0.00,Wunderground v.1.15,2013-08-02 10:02:00,
2013-08-02 06:04:00,61.4,60.8,29.90,NNW,330,0.0,0.0,98,0.00,,,0.00,Wunderground v.1.15,2013-08-02 10:04:00,
2013-08-02 06:08:00,61.4,60.8,29.90,NNW,330,0.0,0.0,98,0.00,,,0.00,Wunderground v.1.15,2013-08-02 10:08:00,
2013-08-02 06:09:00,61.3,60.7,29.90,NNW,330,0.0,0.0,98,0.00,,,0.00,Wunderground v.1.15,2013-08-02 10:09:00,
2013-08-02 06:10:00,61.3,60.4,29.90,NNW,330,0.0,0.0,97,0.00,,,0.00,Wunderground v.1.15,2013-08-02 10:10:00,
2013-08-02 06:11:00,61.3,60.4,29.90,NNW,330,0.0,0.0,97,0.00,,,0.00,Wunderground v.1.15,2013-08-02 10:11:00,
2013-08-02 06:15:00,61.3,60.4,29.90,NNW,330,0.0,0.0,97,0.00,,,0.00,Wunderground v.1.15,2013-08-02 10:15:00,
2013-08-02 06:17:00,61.3,60.4,29.90,NNW,330,0.0,0.0,97,0.00,,,0.00,Wunderground v.1.15,2013-08-02 10:17:00,
2013-08-02 06:18:00,61.3,60.4,29.90,NNW,330,0.0,0.0,97,0.00,,,0.00,Wunderground v.1.15,2013-08-02 10:18:00,
2013-08-02 06:20:00,61.3,60.4,29.90,NNW,330,0.0,0.0,97,0.00,,,0.00,Wunderground v.1.15,2013-08-02 10:20:00,
2013-08-02 06:23:00,61.2,60.6,29.91,NNW,330,0.0,0.0,98,0.00,,,0.00,Wunderground v.1.15,2013-08-02 10:23:00,
2013-08-02 06:24:00,61.2,60.6,29.91,NNW,330,0.0,0.0,98,0.00,,,0.00,Wunderground v.1.15,2013-08-02 10:24:00,
2013-08-02 06:25:00,61.2,60.6,29.91,NNW,330,0.0,0.0,98,0.00,,,0.00,Wunderground v.1.15,2013-08-02 10:25:00,
2013-08-02 06:29:00,61.1,60.5,29.90,NNW,330,0.0,0.0,98,0.00,,,0.00,Wunderground v.1.15,2013-08-02 10:29:00,
2013-08-02 06:30:00,61.1,60.5,29.91,NNW,330,0.0,0.0,98,0.00,,,0.00,Wunderground v.1.15,2013-08-02 10:30:00,
2013-08-02 06:31:00,61.1,60.5,29.91,NNW,330,0.0,0.0,98,0.00,,,0.00,Wunderground v.1.15,2013-08-02 10:31:00,
2013-08-02 06:33:00,61.1,60.5,29.91,NNW,330,0.0,0.0,98,0.00,,,0.00,Wunderground v.1.15,2013-08-02 10:33:00,
2013-08-02 06:34:00,61.1,60.5,29.91,NNW,330,0.0,0.0,98,0.00,,,0.00,Wunderground v.1.15,2013-08-02 10:34:00,
2013-08-02 06:35:00,61.1,60.5,29.91,NNW,330,0.0,0.0,98,0.00,,,0.00,Wunderground v.1.15,2013-08-02 10:35:00,
2013-08-02 06:38:00,61.1,60.5,29.91,NNW,330,0.0,0.0,98,0.00,,,0.00,Wunderground v.1.15,2013-08-02 10:38:00,
2013-08-02 06:41:00,61.1,60.5,29.91,NNW,329,0.0,0.0,98,0.00,,,0.00,Wunderground v.1.15,2013-08-02 10:41:00,
2013-08-02 06:42:00,61.1,60.5,29.91,NNW,329,0.0,0.0,98,0.00,,,0.00,Wunderground v.1.15,2013-08-02 10:42:00,
2013-08-02 06:43:00,61.1,60.5,29.91,NNW,329,0.0,0.0,98,0.00,,,0.00,Wunderground v.1.15,2013-08-02 10:43:00,
2013-08-02 06:46:00,61.1,60.5,29.91,NNW,329,0.0,0.0,98,0.00,,,0.00,Wunderground v.1.15,2013-08-02 10:46:00,
2013-08-02 06:47:00,61.1,60.5,29.91,NNW,329,0.0,0.0,98,0.00,,,0.00,Wunderground v.1.15,2013-08-02 10:47:00,
2013-08-02 06:48:00,61.1,60.5,29.91,NNW,329,0.0,0.0,98,0.00,,,0.00,Wunderground v.1.15,2013-08-02 10:48:00,
2013-08-02 06:49:00,61.1,60.5,29.91,NNW,329,0.0,0.0,98,0.00,,,0.00,Wunderground v.1.15,2013-08-02 10:49:00,
2013-08-02 06:52:00,61.1,60.5,29.91,NNW,329,0.0,0.0,98,0.00,,,0.00,Wunderground v.1.15,2013-08-02 10:52:00,
2013-08-02 06:53:00,61.1,60.5,29.91,NNW,329,0.0,0.0,98,0.00,,,0.00,Wunderground v.1.15,2013-08-02 10:53:00,
2013-08-02 06:57:00,61.1,60.5,29.91,NNW,329,0.0,0.0,98,0.00,,,0.00,Wunderground v.1.15,2013-08-02 10:57:00,
2013-08-02 06:58:00,61.2,60.6,29.91,NNW,329,0.0,0.0,98,0.00,,,0.00,Wunderground v.1.15,2013-08-02 10:58:00,
2013-08-02 07:00:00,61.1,60.5,29.91,NNW,329,0.0,0.0,98,0.00,,,0.00,Wunderground v.1.15,2013-08-02 11:00:00,
2013-08-02 07:01:00,61.1,60.5,29.91,NNW,331,0.0,0.0,98,0.00,,,0.00,Wunderground v.1.15,2013-08-02 11:01:00,
2013-08-02 07:05:00,61.2,60.6,29.92,NW,318,0.0,1.0,98,0.00,,,0.00,Wunderground v.1.15,2013-08-02 11:05:00,
2013-08-02 07:07:00,61.2,60.6,29.92,NNW,327,0.0,1.0,98,0.00,,,0.00,Wunderground v.1.15,2013-08-02 11:07:00,
2013-08-02 07:11:00,61.3,60.7,29.92,NW,325,0.0,0.0,98,0.00,,,0.00,Wunderground v.1.15,2013-08-02 11:11:00,
2013-08-02 07:14:00,61.3,60.7,29.92,WNW,301,0.0,3.0,98,0.00,,,0.00,Wunderground v.1.15,2013-08-02 11:14:00,
2013-08-02 07:16:00,61.4,60.8,29.92,WNW,301,0.0,3.0,98,0.00,,,0.00,Wunderground v.1.15,2013-08-02 11:16:00,
2013-08-02 07:17:00,61.4,60.8,29.92,WNW,301,0.0,3.0,98,0.00,,,0.00,Wunderground v.1.15,2013-08-02 11:17:00,
2013-08-02 07:20:00,61.4,60.8,29.92,NW,306,0.0,3.0,98,0.00,,,0.00,Wunderground v.1.15,2013-08-02 11:20:00,
2013-08-02 07:21:00,61.4,60.8,29.92,NW,306,0.0,3.0,98,0.00,,,0.00,Wunderground v.1.15,2013-08-02 11:21:00,
2013-08-02 07:24:00,61.5,60.9,29.92,NW,304,0.0,3.0,98,0.00,,,0.00,Wunderground v.1.15,2013-08-02 11:24:00,
2013-08-02 07:26:00,61.5,60.9,29.92,NW,305,0.0,3.0,98,0.00,,,0.00,Wunderground v.1.15,2013-08-02 11:26:00,
2013-08-02 07:27:00,61.5,60.9,29.92,NW,305,0.0,3.0,98,0.00,,,0.00,Wunderground v.1.15,2013-08-02 11:27:00,
2013-08-02 07:30:00,61.6,61.0,29.92,NW,306,0.0,3.0,98,0.00,,,0.00,Wunderground v.1.15,2013-08-02 11:30:00,
2013-08-02 07:31:00,61.6,61.0,29.92,NW,306,0.0,3.0,98,0.00,,,0.00,Wunderground v.1.15,2013-08-02 11:31:00,
2013-08-02 07:32:00,61.6,61.0,29.92,NW,306,0.0,3.0,98,0.00,,,0.00,Wunderground v.1.15,2013-08-02 11:32:00,
2013-08-02 07:33:00,61.6,61.0,29.93,NW,306,0.0,3.0,98,0.00,,,0.00,Wunderground v.1.15,2013-08-02 11:33:00,
2013-08-02 07:37:00,61.6,61.0,29.93,NW,306,0.0,3.0,98,0.00,,,0.00,Wunderground v.1.15,2013-08-02 11:37:00,
2013-08-02 07:38:00,61.7,61.1,29.93,NW,309,0.0,3.0,98,0.00,,,0.00,Wunderground v.1.15,2013-08-02 11:38:00,
2013-08-02 07:42:00,61.8,61.2,29.93,NW,313,0.0,3.0,98,0.00,,,0.00,Wunderground v.1.15,2013-08-02 11:42:00,
2013-08-02 07:43:00,61.8,61.2,29.93,NW,313,0.0,3.0,98,0.00,,,0.00,Wunderground v.1.15,2013-08-02 11:43:00,
2013-08-02 07:45:00,61.9,61.3,29.93,NW,313,0.0,3.0,98,0.00,,,0.00,Wunderground v.1.15,2013-08-02 11:45:00,
2013-08-02 07:49:00,62.0,61.4,29.93,NW,313,0.0,3.0,98,0.00,,,0.00,Wunderground v.1.15,2013-08-02 11:49:00,
2013-08-02 07:50:00,62.0,61.4,29.93,NW,313,0.0,2.0,98,0.00,,,0.00,Wunderground v.1.15,2013-08-02 11:50:00,
2013-08-02 07:51:00,62.1,61.5,29.93,NW,313,0.0,2.0,98,0.00,,,0.00,Wunderground v.1.15,2013-08-02 11:51:00,
2013-08-02 07:52:00,62.1,61.5,29.93,NW,313,0.0,2.0,98,0.00,,,0.00,Wunderground v.1.15,2013-08-02 11:52:00,
2013-08-02 07:56:00,62.3,61.7,29.93,NW,319,0.0,2.0,98,0.00,,,0.00,Wunderground v.1.15,2013-08-02 11:56:00,
2013-08-02 07:57:00,62.3,61.7,29.93,NW,319,0.0,2.0,98,0.00,,,0.00,Wunderground v.1.15,2013-08-02 11:57:00,
2013-08-02 07:58:00,62.4,61.8,29.93,NW,319,0.0,2.0,98,0.00,,,0.00,Wunderground v.1.15,2013-08-02 11:58:00,
2013-08-02 08:02:00,62.7,62.1,29.94,NW,319,0.0,2.0,98,0.00,,,0.00,Wunderground v.1.15,2013-08-02 12:02:00,
2013-08-02 08:03:00,62.7,62.1,29.94,NW,319,0.0,2.0,98,0.00,,,0.00,Wunderground v.1.15,2013-08-02 12:03:00,
2013-08-02 08:05:00,62.9,62.3,29.93,NW,321,0.0,2.0,98,0.00,,,0.00,Wunderground v.1.15,2013-08-02 12:05:00,
2013-08-02 08:09:00,63.1,62.5,29.93,NW,320,0.0,2.0,98,0.00,,,0.00,Wunderground v.1.15,2013-08-02 12:09:00,
2013-08-02 08:10:00,63.1,62.5,29.94,NW,319,0.0,2.0,98,0.00,,,0.00,Wunderground v.1.15,2013-08-02 12:10:00,
2013-08-02 08:12:00,63.3,62.7,29.94,NW,321,0.0,2.0,98,0.00,,,0.00,Wunderground v.1.15,2013-08-02 12:12:00,
2013-08-02 08:15:00,63.5,62.9,29.94,NW,321,0.0,2.0,98,0.00,,,0.00,Wunderground v.1.15,2013-08-02 12:15:00,
2013-08-02 08:16:00,63.6,63.0,29.94,NW,321,0.0,2.0,98,0.00,,,0.00,Wunderground v.1.15,2013-08-02 12:16:00,
2013-08-02 08:17:00,63.6,63.0,29.93,NW,321,0.0,2.0,98,0.00,,,0.00,Wunderground v.1.15,2013-08-02 12:17:00,
2013-08-02 08:18:00,63.7,63.1,29.94,NW,321,0.0,2.0,98,0.00,,,0.00,Wunderground v.1.15,2013-08-02 12:18:00,
2013-08-02 08:20:00,63.8,63.2,29.94,NW,321,0.0,2.0,98,0.00,,,0.00,Wunderground v.1.15,2013-08-02 12:20:00,
2013-08-02 08:22:00,63.9,63.3,29.94,NW,321,0.0,2.0,98,0.00,,,0.00,Wunderground v.1.15,2013-08-02 12:22:00,
2013-08-02 08:24:00,64.0,63.4,29.94,NW,321,0.0,2.0,98,0.00,,,0.00,Wunderground v.1.15,2013-08-02 12:24:00,
2013-08-02 08:27:00,64.1,63.5,29.94,NW,321,0.0,2.0,98,0.00,,,0.00,Wunderground v.1.15,2013-08-02 12:27:00,
2013-08-02 08:29:00,64.2,63.3,29.94,NW,321,0.0,2.0,97,0.00,,,0.00,Wunderground v.1.15,2013-08-02 12:29:00,
2013-08-02 08:30:00,64.2,63.3,29.94,NW,321,0.0,2.0,97,0.00,,,0.00,Wunderground v.1.15,2013-08-02 12:30:00,
2013-08-02 08:31:00,64.3,63.4,29.94,NW,321,0.0,2.0,97,0.00,,,0.00,Wunderground v.1.15,2013-08-02 12:31:00,
2013-08-02 08:33:00,64.4,63.5,29.94,NW,321,0.0,2.0,97,0.00,,,0.00,Wunderground v.1.15,2013-08-02 12:33:00,
2013-08-02 08:34:00,64.5,63.6,29.94,NW,321,0.0,2.0,97,0.00,,,0.00,Wunderground v.1.15,2013-08-02 12:34:00,
2013-08-02 08:35:00,64.5,63.6,29.94,NW,321,0.0,2.0,97,0.00,,,0.00,Wunderground v.1.15,2013-08-02 12:35:00,
2013-08-02 08:38:00,64.8,63.9,29.94,NW,321,0.0,2.0,97,0.00,,,0.00,Wunderground v.1.15,2013-08-02 12:38:00,
2013-08-02 08:40:00,64.9,64.0,29.94,NW,321,0.0,2.0,97,0.00,,,0.00,Wunderground v.1.15,2013-08-02 12:40:00,
2013-08-02 08:41:00,65.0,64.1,29.94,NW,321,0.0,2.0,97,0.00,,,0.00,Wunderground v.1.15,2013-08-02 12:41:00,
2013-08-02 08:44:00,65.1,64.2,29.94,NW,320,0.0,2.0,97,0.00,,,0.00,Wunderground v.1.15,2013-08-02 12:44:00,
2013-08-02 08:46:00,65.3,64.4,29.94,NW,320,0.0,2.0,97,0.00,,,0.00,Wunderground v.1.15,2013-08-02 12:46:00,
2013-08-02 08:48:00,65.4,64.5,29.94,NW,320,0.0,2.0,97,0.00,,,0.00,Wunderground v.1.15,2013-08-02 12:48:00,
2013-08-02 08:53:00,65.5,64.3,29.94,NW,320,0.0,0.0,96,0.00,,,0.00,Wunderground v.1.15,2013-08-02 12:53:00,
2013-08-02 08:55:00,65.6,64.4,29.94,NW,319,0.0,0.0,96,0.00,,,0.00,Wunderground v.1.15,2013-08-02 12:55:00,
2013-08-02 08:56:00,65.6,64.4,29.95,NW,319,0.0,0.0,96,0.00,,,0.00,Wunderground v.1.15,2013-08-02 12:56:00,
2013-08-02 08:58:00,65.8,64.6,29.94,NW,319,0.0,0.0,96,0.00,,,0.00,Wunderground v.1.15,2013-08-02 12:58:00,
2013-08-02 08:59:00,65.8,64.6,29.94,NW,322,0.0,0.0,96,0.00,,,0.00,Wunderground v.1.15,2013-08-02 12:59:00,
2013-08-02 09:03:00,66.1,64.9,29.95,NW,319,0.0,0.0,96,0.00,,,0.00,Wunderground v.1.15,2013-08-02 13:03:00,
2013-08-02 09:04:00,66.2,65.0,29.95,NW,319,0.0,0.0,96,0.00,,,0.00,Wunderground v.1.15,2013-08-02 13:04:00,
2013-08-02 09:05:00,66.3,65.1,29.95,NW,313,0.0,0.0,96,0.00,,,0.00,Wunderground v.1.15,2013-08-02 13:05:00,
2013-08-02 09:09:00,66.6,65.1,29.95,NNW,331,0.0,1.0,95,0.00,,,0.01,Wunderground v.1.15,2013-08-02 13:09:00,
2013-08-02 09:10:00,66.7,65.2,29.94,NNW,329,0.0,0.0,95,0.00,,,0.01,Wunderground v.1.15,2013-08-02 13:10:00,
2013-08-02 09:11:00,66.8,65.3,29.95,NW,324,0.0,0.0,95,0.00,,,0.01,Wunderground v.1.15,2013-08-02 13:11:00,
2013-08-02 09:12:00,66.9,65.4,29.95,NW,319,0.0,0.0,95,0.00,,,0.01,Wunderground v.1.15,2013-08-02 13:12:00,
2013-08-02 09:14:00,67.0,65.2,29.95,NW,313,0.0,6.0,94,0.00,,,0.01,Wunderground v.1.15,2013-08-02 13:14:00,
2013-08-02 09:15:00,67.1,65.0,29.95,WNW,298,1.0,6.0,93,0.00,,,0.01,Wunderground v.1.15,2013-08-02 13:15:00,
2013-08-02 09:18:00,67.2,65.1,29.95,NW,313,1.0,6.0,93,0.00,,,0.01,Wunderground v.1.15,2013-08-02 13:18:00,
2013-08-02 09:19:00,67.3,64.9,29.95,NW,313,1.0,6.0,92,0.00,,,0.01,Wunderground v.1.15,2013-08-02 13:19:00,
2013-08-02 09:22:00,67.4,64.7,29.95,NW,309,2.0,5.0,91,0.00,,,0.01,Wunderground v.1.15,2013-08-02 13:22:00,
2013-08-02 09:23:00,67.4,64.4,29.95,NW,323,2.0,5.0,90,0.00,,,0.01,Wunderground v.1.15,2013-08-02 13:23:00,
2013-08-02 09:24:00,67.5,64.8,29.95,WNW,296,2.0,5.0,91,0.00,,,0.01,Wunderground v.1.15,2013-08-02 13:24:00,
2013-08-02 09:25:00,67.5,64.8,29.95,WNW,288,2.0,5.0,91,0.00,,,0.01,Wunderground v.1.15,2013-08-02 13:25:00,
2013-08-02 09:29:00,67.5,64.5,29.94,WSW,241,1.0,5.0,90,0.00,,,0.01,Wunderground v.1.15,2013-08-02 13:29:00,
2013-08-02 09:32:00,67.5,64.5,29.94,WSW,244,1.0,3.0,90,0.00,,,0.01,Wunderground v.1.15,2013-08-02 13:32:00,
2013-08-02 09:33:00,67.4,64.4,29.95,WSW,244,0.0,3.0,90,0.00,,,0.01,Wunderground v.1.15,2013-08-02 13:33:00,
2013-08-02 09:36:00,67.5,64.1,29.95,NNW,345,0.0,3.0,89,0.00,,,0.01,Wunderground v.1.15,2013-08-02 13:36:00,
2013-08-02 09:38:00,67.6,64.2,29.95,North,350,1.0,3.0,89,0.00,,,0.01,Wunderground v.1.15,2013-08-02 13:38:00,
2013-08-02 09:39:00,67.7,64.7,29.95,North,350,1.0,3.0,90,0.00,,,0.01,Wunderground v.1.15,2013-08-02 13:39:00,
2013-08-02 09:41:00,67.9,64.9,29.95,NW,318,1.0,3.0,90,0.00,,,0.01,Wunderground v.1.15,2013-08-02 13:41:00,
2013-08-02 09:43:00,68.1,65.1,29.95,NW,304,1.0,7.0,90,0.00,,,0.01,Wunderground v.1.15,2013-08-02 13:43:00,
2013-08-02 09:44:00,68.2,65.2,29.95,North,355,1.0,7.0,90,0.00,,,0.01,Wunderground v.1.15,2013-08-02 13:44:00,
2013-08-02 09:45:00,68.2,64.8,29.95,NW,321,1.0,7.0,89,0.00,,,0.01,Wunderground v.1.15,2013-08-02 13:45:00,
2013-08-02 09:49:00,68.5,65.1,29.95,WNW,284,0.0,7.0,89,0.00,,,0.01,Wunderground v.1.15,2013-08-02 13:49:00,
2013-08-02 09:50:00,68.6,65.2,29.95,NW,309,1.0,1.0,89,0.00,,,0.01,Wunderground v.1.15,2013-08-02 13:50:00,
2013-08-02 09:53:00,68.8,65.4,29.95,NW,319,1.0,7.0,89,0.00,,,0.01,Wunderground v.1.15,2013-08-02 13:53:00,
2013-08-02 09:54:00,68.8,65.4,29.95,NW,306,1.0,7.0,89,0.00,,,0.01,Wunderground v.1.15,2013-08-02 13:54:00,
2013-08-02 09:56:00,68.8,65.1,29.95,WNW,299,1.0,7.0,88,0.00,,,0.01,Wunderground v.1.15,2013-08-02 13:56:00,
2013-08-02 09:57:00,68.9,65.2,29.95,WNW,296,1.0,7.0,88,0.00,,,0.01,Wunderground v.1.15,2013-08-02 13:57:00,
2013-08-02 09:58:00,68.9,65.5,29.96,WNW,283,0.0,7.0,89,0.00,,,0.01,Wunderground v.1.15,2013-08-02 13:58:00,
2013-08-02 09:59:00,68.9,65.5,29.96,WNW,283,0.0,7.0,89,0.00,,,0.01,Wunderground v.1.15,2013-08-02 13:59:00,
2013-08-02 10:01:00,68.7,64.7,29.96,West,280,0.0,7.0,87,0.00,,,0.01,Wunderground v.1.15,2013-08-02 14:01:00,
2013-08-02 10:03:00,68.5,64.5,29.96,WNW,290,1.0,7.0,87,0.00,,,0.01,Wunderground v.1.15,2013-08-02 14:03:00,
2013-08-02 10:04:00,68.5,64.8,29.96,NW,321,1.0,7.0,88,0.00,,,0.01,Wunderground v.1.15,2013-08-02 14:04:00,
2013-08-02 10:05:00,68.5,64.8,29.96,NW,317,1.0,7.0,88,0.00,,,0.01,Wunderground v.1.15,2013-08-02 14:05:00,
2013-08-02 10:06:00,68.5,64.8,29.95,NW,315,1.0,7.0,88,0.00,,,0.01,Wunderground v.1.15,2013-08-02 14:06:00,
2013-08-02 10:09:00,68.5,64.8,29.95,WNW,296,1.0,7.0,88,0.00,,,0.01,Wunderground v.1.15,2013-08-02 14:09:00,
2013-08-02 10:10:00,68.6,64.9,29.95,WNW,296,1.0,1.0,88,0.00,,,0.01,Wunderground v.1.15,2013-08-02 14:10:00,
2013-08-02 10:12:00,68.7,65.0,29.95,NW,316,1.0,7.0,88,0.00,,,0.01,Wunderground v.1.15,2013-08-02 14:12:00,
2013-08-02 10:14:00,68.7,64.7,29.95,WNW,286,0.0,7.0,87,0.00,,,0.01,Wunderground v.1.15,2013-08-02 14:14:00,
2013-08-02 10:15:00,68.7,64.7,29.95,WNW,286,0.0,7.0,87,0.00,,,0.01,Wunderground v.1.15,2013-08-02 14:15:00,
2013-08-02 10:18:00,68.7,65.0,29.95,WNW,302,0.0,7.0,88,0.00,,,0.01,Wunderground v.1.15,2013-08-02 14:18:00,
2013-08-02 10:20:00,68.8,65.1,29.95,WNW,301,0.0,5.0,88,0.00,,,0.01,Wunderground v.1.15,2013-08-02 14:20:00,
2013-08-02 10:21:00,68.9,65.2,29.95,WNW,301,0.0,5.0,88,0.00,,,0.01,Wunderground v.1.15,2013-08-02 14:21:00,
2013-08-02 10:22:00,68.9,65.2,29.95,WNW,302,0.0,5.0,88,0.00,,,0.01,Wunderground v.1.15,2013-08-02 14:22:00,
2013-08-02 10:26:00,69.1,65.1,29.95,WNW,296,0.0,5.0,87,0.00,,,0.01,Wunderground v.1.15,2013-08-02 14:26:00,
2013-08-02 10:27:00,69.1,65.1,29.95,WNW,302,0.0,5.0,87,0.00,,,0.01,Wunderground v.1.15,2013-08-02 14:27:00,
2013-08-02 10:28:00,69.1,65.1,29.95,NW,306,0.0,5.0,87,0.00,,,0.01,Wunderground v.1.15,2013-08-02 14:28:00,
2013-08-02 10:31:00,69.2,65.2,29.95,NW,306,0.0,5.0,87,0.00,,,0.01,Wunderground v.1.15,2013-08-02 14:31:00,
2013-08-02 10:33:00,69.4,65.7,29.95,NW,306,0.0,5.0,88,0.00,,,0.01,Wunderground v.1.15,2013-08-02 14:33:00,
2013-08-02 10:34:00,69.4,65.4,29.95,NW,306,0.0,5.0,87,0.00,,,0.01,Wunderground v.1.15,2013-08-02 14:34:00,
2013-08-02 10:36:00,69.7,65.7,29.95,NNW,345,0.0,5.0,87,0.00,,,0.01,Wunderground v.1.15,2013-08-02 14:36:00,
2013-08-02 10:38:00,69.9,65.9,29.95,NNW,340,1.0,5.0,87,0.00,,,0.01,Wunderground v.1.15,2013-08-02 14:38:00,
2013-08-02 10:39:00,70.0,66.0,29.95,NW,311,1.0,5.0,87,0.00,,,0.01,Wunderground v.1.15,2013-08-02 14:39:00,
2013-08-02 10:41:00,70.0,65.6,29.94,NW,315,0.0,5.0,86,0.00,,,0.01,Wunderground v.1.15,2013-08-02 14:41:00,
2013-08-02 10:45:00,70.1,65.4,29.94,NW,305,1.0,5.0,85,0.00,,,0.01,Wunderground v.1.15,2013-08-02 14:45:00,
2013-08-02 10:46:00,70.0,65.3,29.94,NW,314,1.0,5.0,85,0.00,,,0.01,Wunderground v.1.15,2013-08-02 14:46:00,
2013-08-02 10:47:00,70.0,65.3,29.94,WNW,294,0.0,5.0,85,0.00,,,0.01,Wunderground v.1.15,2013-08-02 14:47:00,
2013-08-02 10:48:00,70.0,65.3,29.95,WSW,257,0.0,5.0,85,0.00,,,0.01,Wunderground v.1.15,2013-08-02 14:48:00,
2013-08-02 10:49:00,70.0,64.9,29.95,WSW,257,0.0,5.0,84,0.00,,,0.01,Wunderground v.1.15,2013-08-02 14:49:00,
2013-08-02 10:52:00,70.0,64.9,29.95,WNW,287,0.0,5.0,84,0.00,,,0.01,Wunderground v.1.15,2013-08-02 14:52:00,
2013-08-02 10:56:00,70.2,65.5,29.95,WNW,284,0.0,5.0,85,0.00,,,0.01,Wunderground v.1.15,2013-08-02 14:56:00,
2013-08-02 10:57:00,70.2,65.1,29.95,WNW,284,0.0,5.0,84,0.00,,,0.01,Wunderground v.1.15,2013-08-02 14:57:00,
2013-08-02 10:59:00,70.2,65.1,29.95,WNW,284,0.0,5.0,84,0.00,,,0.01,Wunderground v.1.15,2013-08-02 14:59:00,
2013-08-02 11:00:00,70.3,65.2,29.95,WNW,284,0.0,5.0,84,0.00,,,0.01,Wunderground v.1.15,2013-08-02 15:00:00,
2013-08-02 11:01:00,70.3,64.9,29.95,WNW,284,0.0,5.0,83,0.00,,,0.01,Wunderground v.1.15,2013-08-02 15:01:00,
2013-08-02 11:02:00,70.4,65.3,29.95,WNW,302,0.0,5.0,84,0.00,,,0.01,Wunderground v.1.15,2013-08-02 15:02:00,
2013-08-02 11:05:00,70.6,65.2,29.95,WNW,286,0.0,5.0,83,0.00,,,0.01,Wunderground v.1.15,2013-08-02 15:05:00,
2013-08-02 11:07:00,70.7,65.6,29.95,NW,310,0.0,5.0,84,0.00,,,0.01,Wunderground v.1.15,2013-08-02 15:07:00,
2013-08-02 11:08:00,70.8,66.1,29.95,NW,311,0.0,5.0,85,0.00,,,0.01,Wunderground v.1.15,2013-08-02 15:08:00,
2013-08-02 11:09:00,70.9,66.2,29.95,WNW,286,0.0,5.0,85,0.00,,,0.01,Wunderground v.1.15,2013-08-02 15:09:00,
2013-08-02 11:11:00,71.0,65.9,29.95,WNW,286,0.0,5.0,84,0.00,,,0.01,Wunderground v.1.15,2013-08-02 15:11:00,
2013-08-02 11:16:00,71.2,66.1,29.95,NW,306,0.0,5.0,84,0.00,,,0.01,Wunderground v.1.15,2013-08-02 15:16:00,
2013-08-02 11:17:00,71.2,65.4,29.95,WNW,298,0.0,5.0,82,0.00,,,0.01,Wunderground v.1.15,2013-08-02 15:17:00,
2013-08-02 11:21:00,71.2,65.1,29.95,WNW,295,0.0,4.0,81,0.00,,,0.01,Wunderground v.1.15,2013-08-02 15:21:00,
2013-08-02 11:22:00,71.3,65.2,29.95,WNW,300,0.0,4.0,81,0.00,,,0.01,Wunderground v.1.15,2013-08-02 15:22:00,
2013-08-02 11:24:00,71.3,65.5,29.95,NW,309,0.0,4.0,82,0.00,,,0.01,Wunderground v.1.15,2013-08-02 15:24:00,
2013-08-02 11:27:00,71.7,66.3,29.95,NW,322,0.0,4.0,83,0.00,,,0.01,Wunderground v.1.15,2013-08-02 15:27:00,
2013-08-02 11:28:00,71.9,66.5,29.95,WNW,301,0.0,4.0,83,0.00,,,0.01,Wunderground v.1.15,2013-08-02 15:28:00,
2013-08-02 11:29:00,72.0,66.2,29.95,WNW,300,0.0,4.0,82,0.00,,,0.01,Wunderground v.1.15,2013-08-02 15:29:00,
2013-08-02 11:30:00,72.1,66.6,29.96,NW,304,0.0,4.0,83,0.00,,,0.01,Wunderground v.1.15,2013-08-02 15:30:00,
2013-08-02 11:32:00,72.2,66.7,29.96,SW,229,0.0,4.0,83,0.00,,,0.01,Wunderground v.1.15,2013-08-02 15:32:00,
2013-08-02 11:35:00,71.9,64.7,29.95,West,263,0.0,4.0,78,0.00,,,0.01,Wunderground v.1.15,2013-08-02 15:35:00,
2013-08-02 11:36:00,71.9,65.4,29.95,West,263,0.0,4.0,80,0.00,,,0.01,Wunderground v.1.15,2013-08-02 15:36:00,
2013-08-02 11:37:00,71.8,65.3,29.96,West,264,0.0,4.0,80,0.00,,,0.01,Wunderground v.1.15,2013-08-02 15:37:00,
2013-08-02 11:38:00,71.7,65.6,29.96,West,263,0.0,4.0,81,0.00,,,0.01,Wunderground v.1.15,2013-08-02 15:38:00,
2013-08-02 11:39:00,71.6,65.8,29.96,West,264,0.0,4.0,82,0.00,,,0.01,Wunderground v.1.15,2013-08-02 15:39:00,
2013-08-02 11:44:00,71.1,65.7,29.96,West,272,0.0,4.0,83,0.00,,,0.01,Wunderground v.1.15,2013-08-02 15:44:00,
2013-08-02 11:45:00,71.1,65.3,29.96,West,278,0.0,4.0,82,0.00,,,0.01,Wunderground v.1.15,2013-08-02 15:45:00,
2013-08-02 11:49:00,71.3,65.9,29.96,WNW,286,1.0,4.0,83,0.00,,,0.01,Wunderground v.1.15,2013-08-02 15:49:00,
2013-08-02 11:50:00,71.3,65.9,29.96,WNW,286,1.0,1.0,83,0.00,,,0.01,Wunderground v.1.15,2013-08-02 15:50:00,
2013-08-02 11:51:00,71.3,65.5,29.96,WNW,286,1.0,4.0,82,0.00,,,0.01,Wunderground v.1.15,2013-08-02 15:51:00,
2013-08-02 11:52:00,71.3,66.2,29.96,WNW,286,1.0,4.0,84,0.00,,,0.01,Wunderground v.1.15,2013-08-02 15:52:00,
2013-08-02 11:53:00,71.3,66.2,29.96,NW,323,1.0,4.0,84,0.00,,,0.01,Wunderground v.1.15,2013-08-02 15:53:00,
2013-08-02 11:56:00,71.3,65.9,29.96,NW,304,0.0,4.0,83,0.00,,,0.01,Wunderground v.1.15,2013-08-02 15:56:00,
2013-08-02 11:58:00,71.3,66.2,29.96,WNW,290,0.0,4.0,84,0.00,,,0.01,Wunderground v.1.15,2013-08-02 15:58:00,
2013-08-02 11:59:00,71.3,66.6,29.96,WNW,285,0.0,4.0,85,0.00,,,0.01,Wunderground v.1.15,2013-08-02 15:59:00,
2013-08-02 12:01:00,71.3,65.9,29.96,WNW,286,0.0,4.0,83,0.00,,,0.01,Wunderground v.1.15,2013-08-02 16:01:00,
2013-08-02 12:02:00,71.3,66.2,29.96,NW,318,0.0,4.0,84,0.00,,,0.01,Wunderground v.1.15,2013-08-02 16:02:00,
2013-08-02 12:03:00,71.3,66.6,29.96,NW,309,0.0,4.0,85,0.00,,,0.01,Wunderground v.1.15,2013-08-02 16:03:00,
2013-08-02 12:04:00,71.3,66.6,29.96,WNW,302,0.0,4.0,85,0.00,,,0.01,Wunderground v.1.15,2013-08-02 16:04:00,
2013-08-02 12:08:00,71.5,66.8,29.96,NW,307,0.0,4.0,85,0.00,,,0.01,Wunderground v.1.15,2013-08-02 16:08:00,
2013-08-02 12:09:00,71.6,66.8,29.96,NW,306,0.0,4.0,85,0.00,,,0.01,Wunderground v.1.15,2013-08-02 16:09:00,
2013-08-02 12:10:00,71.7,66.9,29.96,WNW,303,0.0,4.0,85,0.00,,,0.01,Wunderground v.1.15,2013-08-02 16:10:00,
2013-08-02 12:12:00,71.7,66.3,29.96,NW,315,0.0,4.0,83,0.00,,,0.01,Wunderground v.1.15,2013-08-02 16:12:00,
2013-08-02 12:13:00,71.6,65.8,29.96,WNW,292,1.0,4.0,82,0.00,,,0.01,Wunderground v.1.15,2013-08-02 16:13:00,
2013-08-02 12:16:00,71.3,65.9,29.97,WNW,294,1.0,4.0,83,0.00,,,0.01,Wunderground v.1.15,2013-08-02 16:16:00,
2013-08-02 12:17:00,71.3,65.9,29.97,NW,314,1.0,4.0,83,0.00,,,0.01,Wunderground v.1.15,2013-08-02 16:17:00,
2013-08-02 12:18:00,71.3,65.9,29.97,NW,316,1.0,4.0,83,0.00,,,0.01,Wunderground v.1.15,2013-08-02 16:18:00,
2013-08-02 12:21:00,71.3,65.5,29.97,NW,326,1.0,3.0,82,0.00,,,0.01,Wunderground v.1.15,2013-08-02 16:21:00,
2013-08-02 12:22:00,71.3,66.2,29.97,NW,323,1.0,4.0,84,0.00,,,0.01,Wunderground v.1.15,2013-08-02 16:22:00,
2013-08-02 12:23:00,71.4,66.3,29.97,WSW,240,1.0,4.0,84,0.00,,,0.01,Wunderground v.1.15,2013-08-02 16:23:00,
2013-08-02 12:24:00,71.5,66.4,29.97,WSW,240,1.0,4.0,84,0.00,,,0.01,Wunderground v.1.15,2013-08-02 16:24:00,
2013-08-02 12:26:00,71.8,67.0,29.97,WSW,254,1.0,4.0,85,0.00,,,0.01,Wunderground v.1.15,2013-08-02 16:26:00,
2013-08-02 12:27:00,71.8,67.0,29.97,West,259,1.0,4.0,85,0.00,,,0.01,Wunderground v.1.15,2013-08-02 16:27:00,
2013-08-02 12:31:00,72.0,66.9,29.97,WNW,286,1.0,4.0,84,0.00,,,0.01,Wunderground v.1.15,2013-08-02 16:31:00,
2013-08-02 12:32:00,72.1,67.0,29.96,WNW,286,0.0,4.0,84,0.00,,,0.01,Wunderground v.1.15,2013-08-02 16:32:00,
2013-08-02 12:33:00,72.2,67.4,29.96,WNW,288,0.0,4.0,85,0.00,,,0.01,Wunderground v.1.15,2013-08-02 16:33:00,
2013-08-02 12:34:00,72.3,67.2,29.96,NNW,335,0.0,4.0,84,0.00,,,0.01,Wunderground v.1.15,2013-08-02 16:34:00,
2013-08-02 12:36:00,72.5,67.7,29.96,NW,323,1.0,4.0,85,0.00,,,0.01,Wunderground v.1.15,2013-08-02 16:36:00,
2013-08-02 12:37:00,72.6,67.5,29.96,NW,323,1.0,4.0,84,0.00,,,0.01,Wunderground v.1.15,2013-08-02 16:37:00,
2013-08-02 12:39:00,72.7,67.9,29.96,NW,324,1.0,4.0,85,0.00,,,0.01,Wunderground v.1.15,2013-08-02 16:39:00,
2013-08-02 12:41:00,72.7,66.9,29.96,NNW,327,1.0,4.0,82,0.00,,,0.01,Wunderground v.1.15,2013-08-02 16:41:00,
2013-08-02 12:42:00,72.7,67.6,29.96,NNW,327,2.0,4.0,84,0.00,,,0.01,Wunderground v.1.15,2013-08-02 16:42:00,
2013-08-02 12:44:00,72.8,68.0,29.96,West,276,2.0,6.0,85,0.00,,,0.01,Wunderground v.1.15,2013-08-02 16:44:00,
2013-08-02 12:46:00,72.7,66.5,29.96,West,271,1.0,6.0,81,0.00,,,0.01,Wunderground v.1.15,2013-08-02 16:46:00,
2013-08-02 12:47:00,72.6,66.1,29.96,West,271,1.0,6.0,80,0.00,,,0.01,Wunderground v.1.15,2013-08-02 16:47:00,
2013-08-02 12:48:00,72.6,66.4,29.96,WSW,257,1.0,6.0,81,0.00,,,0.01,Wunderground v.1.15,2013-08-02 16:48:00,
2013-08-02 12:49:00,72.7,66.5,29.96,NW,307,1.0,6.0,81,0.00,,,0.01,Wunderground v.1.15,2013-08-02 16:49:00,
2013-08-02 12:55:00,73.0,66.5,29.95,West,269,1.0,6.0,80,0.00,,,0.01,Wunderground v.1.15,2013-08-02 16:55:00,
2013-08-02 12:56:00,73.0,66.5,29.95,WNW,294,1.0,6.0,80,0.00,,,0.01,Wunderground v.1.15,2013-08-02 16:56:00,
2013-08-02 12:57:00,73.1,66.2,29.95,WNW,292,1.0,6.0,79,0.00,,,0.01,Wunderground v.1.15,2013-08-02 16:57:00,
2013-08-02 12:58:00,73.2,65.9,29.96,WNW,285,2.0,6.0,78,0.00,,,0.01,Wunderground v.1.15,2013-08-02 16:58:00,
2013-08-02 13:00:00,73.2,65.9,29.96,West,269,2.0,6.0,78,0.00,,,0.01,Wunderground v.1.15,2013-08-02 17:00:00,
2013-08-02 13:03:00,73.2,65.6,29.95,West,269,2.0,6.0,77,0.00,,,0.01,Wunderground v.1.15,2013-08-02 17:03:00,
2013-08-02 13:04:00,73.2,65.6,29.95,West,281,2.0,6.0,77,0.00,,,0.01,Wunderground v.1.15,2013-08-02 17:04:00,
2013-08-02 13:05:00,73.1,65.5,29.95,West,260,2.0,6.0,77,0.00,,,0.01,Wunderground v.1.15,2013-08-02 17:05:00,
2013-08-02 13:06:00,73.1,64.7,29.95,West,260,2.0,6.0,75,0.00,,,0.01,Wunderground v.1.15,2013-08-02 17:06:00,
2013-08-02 13:08:00,73.2,64.8,29.95,NW,321,2.0,6.0,75,0.00,,,0.01,Wunderground v.1.15,2013-08-02 17:08:00,
2013-08-02 13:10:00,73.3,66.0,29.95,West,274,2.0,6.0,78,0.00,,,0.01,Wunderground v.1.15,2013-08-02 17:10:00,
2013-08-02 13:11:00,73.4,65.7,29.95,West,273,2.0,6.0,77,0.00,,,0.01,Wunderground v.1.15,2013-08-02 17:11:00,
2013-08-02 13:13:00,73.5,66.2,29.95,WNW,292,2.0,6.0,78,0.00,,,0.01,Wunderground v.1.15,2013-08-02 17:13:00,
2013-08-02 13:17:00,74.1,67.9,29.95,NW,313,3.0,6.0,81,0.00,,,0.01,Wunderground v.1.15,2013-08-02 17:17:00,
2013-08-02 13:18:00,74.2,66.9,29.95,West,259,2.0,6.0,78,0.00,,,0.01,Wunderground v.1.15,2013-08-02 17:18:00,
2013-08-02 13:19:00,74.2,66.9,29.95,NW,307,2.0,6.0,78,0.00,,,0.01,Wunderground v.1.15,2013-08-02 17:19:00,
2013-08-02 13:22:00,74.2,66.5,29.95,West,280,3.0,6.0,77,0.00,,,0.01,Wunderground v.1.15,2013-08-02 17:22:00,
2013-08-02 13:24:00,74.3,66.6,29.95,North,349,2.0,6.0,77,0.00,,,0.01,Wunderground v.1.15,2013-08-02 17:24:00,
2013-08-02 13:25:00,74.3,66.6,29.95,NNW,328,2.0,6.0,77,0.00,,,0.01,Wunderground v.1.15,2013-08-02 17:25:00,
2013-08-02 13:26:00,74.4,66.7,29.95,NW,311,2.0,6.0,77,0.00,,,0.01,Wunderground v.1.15,2013-08-02 17:26:00,
2013-08-02 13:28:00,74.6,67.7,29.95,WNW,298,3.0,6.0,79,0.00,,,0.01,Wunderground v.1.15,2013-08-02 17:28:00,
2013-08-02 13:30:00,74.8,68.2,29.95,WNW,296,3.0,6.0,80,0.00,,,0.01,Wunderground v.1.15,2013-08-02 17:30:00,
2013-08-02 13:32:00,74.9,66.4,29.95,West,261,3.0,6.0,75,0.00,,,0.01,Wunderground v.1.15,2013-08-02 17:32:00,
2013-08-02 13:34:00,74.9,66.8,29.95,West,278,3.0,6.0,76,0.00,,,0.01,Wunderground v.1.15,2013-08-02 17:34:00,
2013-08-02 13:35:00,74.9,66.8,29.95,West,277,3.0,6.0,76,0.00,,,0.01,Wunderground v.1.15,2013-08-02 17:35:00,
2013-08-02 13:38:00,74.8,67.1,29.95,WNW,292,3.0,6.0,77,0.00,,,0.01,Wunderground v.1.15,2013-08-02 17:38:00,
2013-08-02 13:40:00,75.0,68.4,29.95,WNW,294,3.0,6.0,80,0.00,,,0.01,Wunderground v.1.15,2013-08-02 17:40:00,
2013-08-02 13:41:00,75.0,67.3,29.95,WNW,294,3.0,6.0,77,0.00,,,0.01,Wunderground v.1.15,2013-08-02 17:41:00,
2013-08-02 13:43:00,75.1,66.2,29.95,West,274,2.0,9.0,74,0.00,,,0.01,Wunderground v.1.15,2013-08-02 17:43:00,
2013-08-02 13:47:00,74.6,65.8,29.95,NW,325,2.0,9.0,74,0.00,,,0.01,Wunderground v.1.15,2013-08-02 17:47:00,
2013-08-02 13:48:00,74.5,66.4,29.95,North,355,2.0,9.0,76,0.00,,,0.01,Wunderground v.1.15,2013-08-02 17:48:00,
2013-08-02 13:49:00,74.5,66.4,29.95,West,267,2.0,9.0,76,0.00,,,0.01,Wunderground v.1.15,2013-08-02 17:49:00,
2013-08-02 13:50:00,74.4,66.0,29.95,West,265,2.0,2.0,75,0.00,,,0.01,Wunderground v.1.15,2013-08-02 17:50:00,
2013-08-02 13:54:00,74.3,66.2,29.95,North,349,2.0,9.0,76,0.00,,,0.01,Wunderground v.1.15,2013-08-02 17:54:00,
2013-08-02 13:57:00,74.1,66.0,29.95,WNW,291,1.0,9.0,76,0.00,,,0.01,Wunderground v.1.15,2013-08-02 17:57:00,
2013-08-02 13:58:00,74.2,66.5,29.95,NW,314,1.0,9.0,77,0.00,,,0.01,Wunderground v.1.15,2013-08-02 17:58:00,
2013-08-02 14:01:00,74.2,65.4,29.95,WNW,298,2.0,9.0,74,0.00,,,0.01,Wunderground v.1.15,2013-08-02 18:01:00,
2013-08-02 14:05:00,73.9,65.1,29.94,WNW,295,2.0,9.0,74,0.00,,,0.01,Wunderground v.1.15,2013-08-02 18:05:00,
2013-08-02 14:06:00,73.7,65.7,29.94,WNW,294,2.0,9.0,76,0.00,,,0.01,Wunderground v.1.15,2013-08-02 18:06:00,
2013-08-02 14:07:00,73.6,65.9,29.94,WNW,294,2.0,9.0,77,0.00,,,0.01,Wunderground v.1.15,2013-08-02 18:07:00,
2013-08-02 14:10:00,73.7,66.0,29.94,WNW,302,2.0,9.0,77,0.00,,,0.01,Wunderground v.1.15,2013-08-02 18:10:00,
2013-08-02 14:13:00,74.0,66.3,29.94,West,259,2.0,9.0,77,0.00,,,0.01,Wunderground v.1.15,2013-08-02 18:13:00,
2013-08-02 14:16:00,74.3,67.0,29.94,West,279,1.0,9.0,78,0.00,,,0.01,Wunderground v.1.15,2013-08-02 18:16:00,
2013-08-02 14:18:00,74.4,66.3,29.94,WNW,296,1.0,9.0,76,0.00,,,0.01,Wunderground v.1.15,2013-08-02 18:18:00,
2013-08-02 14:19:00,74.4,67.1,29.94,WNW,296,1.0,9.0,78,0.00,,,0.01,Wunderground v.1.15,2013-08-02 18:19:00,
2013-08-02 14:20:00,74.3,66.6,29.94,NW,321,1.0,7.0,77,0.00,,,0.01,Wunderground v.1.15,2013-08-02 18:20:00,
2013-08-02 14:22:00,74.2,66.1,29.94,WNW,294,1.0,7.0,76,0.00,,,0.01,Wunderground v.1.15,2013-08-02 18:22:00,
2013-08-02 14:23:00,74.2,65.4,29.94,NW,313,2.0,7.0,74,0.00,,,0.01,Wunderground v.1.15,2013-08-02 18:23:00,
2013-08-02 14:27:00,74.3,65.5,29.94,NW,304,3.0,7.0,74,0.00,,,0.01,Wunderground v.1.15,2013-08-02 18:27:00,
2013-08-02 14:28:00,74.3,65.9,29.94,WNW,291,3.0,7.0,75,0.00,,,0.01,Wunderground v.1.15,2013-08-02 18:28:00,
2013-08-02 14:29:00,74.3,65.9,29.94,NNW,333,3.0,7.0,75,0.00,,,0.01,Wunderground v.1.15,2013-08-02 18:29:00,
2013-08-02 14:31:00,74.5,66.8,29.94,NW,309,3.0,7.0,77,0.00,,,0.01,Wunderground v.1.15,2013-08-02 18:31:00,
2013-08-02 14:35:00,74.7,66.2,29.94,NW,306,2.0,7.0,75,0.00,,,0.01,Wunderground v.1.15,2013-08-02 18:35:00,
2013-08-02 14:36:00,74.7,65.5,29.94,NW,304,2.0,7.0,73,0.00,,,0.01,Wunderground v.1.15,2013-08-02 18:36:00,
2013-08-02 14:41:00,75.1,66.2,29.94,NW,315,3.0,7.0,74,0.00,,,0.01,Wunderground v.1.15,2013-08-02 18:41:00,
2013-08-02 14:43:00,75.1,63.8,29.94,WNW,294,3.0,9.0,68,0.00,,,0.01,Wunderground v.1.15,2013-08-02 18:43:00,
2013-08-02 14:44:00,75.1,64.6,29.94,West,260,3.0,9.0,70,0.00,,,0.01,Wunderground v.1.15,2013-08-02 18:44:00,
2013-08-02 14:47:00,75.4,67.3,29.94,WNW,286,3.0,9.0,76,0.00,,,0.01,Wunderground v.1.15,2013-08-02 18:47:00,
2013-08-02 14:49:00,75.5,65.8,29.94,WSW,257,3.0,9.0,72,0.00,,,0.01,Wunderground v.1.15,2013-08-02 18:49:00,
2013-08-02 14:50:00,75.6,65.5,29.94,NW,309,3.0,9.0,71,0.00,,,0.01,Wunderground v.1.15,2013-08-02 18:50:00,
2013-08-02 14:52:00,75.5,64.6,29.94,NW,315,3.0,9.0,69,0.00,,,0.01,Wunderground v.1.15,2013-08-02 18:52:00,
2013-08-02 14:54:00,75.4,66.1,29.95,NW,309,2.0,9.0,73,0.00,,,0.01,Wunderground v.1.15,2013-08-02 18:54:00,
2013-08-02 14:55:00,75.3,66.4,29.94,NW,313,2.0,9.0,74,0.00,,,0.01,Wunderground v.1.15,2013-08-02 18:55:00,
2013-08-02 14:58:00,75.1,65.5,29.94,WSW,250,2.0,9.0,72,0.00,,,0.01,Wunderground v.1.15,2013-08-02 18:58:00,
2013-08-02 15:00:00,75.1,65.9,29.95,West,278,2.0,2.0,73,0.00,,,0.01,Wunderground v.1.15,2013-08-02 19:00:00,
2013-08-02 15:02:00,75.1,65.9,29.94,North,355,2.0,9.0,73,0.00,,,0.01,Wunderground v.1.15,2013-08-02 19:02:00,
2013-08-02 15:05:00,75.2,65.6,29.95,WNW,284,2.0,9.0,72,0.00,,,0.01,Wunderground v.1.15,2013-08-02 19:05:00,
2013-08-02 15:06:00,75.1,65.1,29.94,WNW,284,2.0,9.0,71,0.00,,,0.01,Wunderground v.1.15,2013-08-02 19:06:00,
2013-08-02 15:11:00,74.9,66.1,29.95,NW,310,1.0,9.0,74,0.00,,,0.01,Wunderground v.1.15,2013-08-02 19:11:00,
2013-08-02 15:14:00,74.9,66.1,29.94,WNW,284,1.0,13.0,74,0.00,,,0.01,Wunderground v.1.15,2013-08-02 19:14:00,
2013-08-02 15:15:00,74.9,66.1,29.94,WNW,301,1.0,13.0,74,0.00,,,0.01,Wunderground v.1.15,2013-08-02 19:15:00,
2013-08-02 15:19:00,75.0,65.4,29.94,NNW,333,2.0,13.0,72,0.00,,,0.01,Wunderground v.1.15,2013-08-02 19:19:00,
2013-08-02 15:20:00,75.1,66.2,29.94,WNW,292,2.0,13.0,74,0.00,,,0.01,Wunderground v.1.15,2013-08-02 19:20:00,
2013-08-02 15:21:00,75.0,65.4,29.94,West,279,2.0,13.0,72,0.00,,,0.01,Wunderground v.1.15,2013-08-02 19:21:00,
2013-08-02 15:22:00,75.0,65.0,29.94,NNW,338,3.0,13.0,71,0.00,,,0.01,Wunderground v.1.15,2013-08-02 19:22:00,
2013-08-02 15:24:00,75.1,65.9,29.94,NW,321,2.0,13.0,73,0.00,,,0.01,Wunderground v.1.15,2013-08-02 19:24:00,
2013-08-02 15:27:00,75.4,66.1,29.94,NW,320,2.0,13.0,73,0.00,,,0.01,Wunderground v.1.15,2013-08-02 19:27:00,
2013-08-02 15:29:00,75.7,66.0,29.94,WNW,287,2.0,13.0,72,0.00,,,0.01,Wunderground v.1.15,2013-08-02 19:29:00,
2013-08-02 15:30:00,75.8,65.7,29.94,WNW,287,2.0,2.0,71,0.00,,,0.01,Wunderground v.1.15,2013-08-02 19:30:00,
2013-08-02 15:32:00,76.1,68.0,29.94,WNW,290,1.0,13.0,76,0.00,,,0.01,Wunderground v.1.15,2013-08-02 19:32:00,
2013-08-02 15:35:00,76.4,65.9,29.94,NW,309,2.0,13.0,70,0.00,,,0.01,Wunderground v.1.15,2013-08-02 19:35:00,
2013-08-02 15:36:00,76.4,65.5,29.94,North,351,2.0,13.0,69,0.00,,,0.01,Wunderground v.1.15,2013-08-02 19:36:00,
2013-08-02 15:37:00,76.5,65.6,29.94,NNW,329,2.0,13.0,69,0.00,,,0.01,Wunderground v.1.15,2013-08-02 19:37:00,
2013-08-02 15:38:00,76.4,65.1,29.94,NW,323,2.0,13.0,68,0.00,,,0.01,Wunderground v.1.15,2013-08-02 19:38:00,
2013-08-02 15:40:00,76.2,65.3,29.94,NW,314,2.0,13.0,69,0.00,,,0.01,Wunderground v.1.15,2013-08-02 19:40:00,
2013-08-02 15:43:00,75.7,64.8,29.94,North,10,3.0,13.0,69,0.00,,,0.01,Wunderground v.1.15,2013-08-02 19:43:00,
2013-08-02 15:45:00,75.8,66.1,29.94,West,268,3.0,13.0,72,0.00,,,0.01,Wunderground v.1.15,2013-08-02 19:45:00,
2013-08-02 15:46:00,75.8,65.3,29.94,NW,319,2.0,13.0,70,0.00,,,0.01,Wunderground v.1.15,2013-08-02 19:46:00,
2013-08-02 15:48:00,76.0,65.1,29.94,WNW,285,3.0,13.0,69,0.00,,,0.01,Wunderground v.1.15,2013-08-02 19:48:00,
2013-08-02 15:50:00,76.0,65.5,29.94,WNW,300,3.0,3.0,70,0.00,,,0.01,Wunderground v.1.15,2013-08-02 19:50:00,
2013-08-02 15:53:00,75.6,65.1,29.94,NNW,340,3.0,7.0,70,0.00,,,0.01,Wunderground v.1.15,2013-08-02 19:53:00,
2013-08-02 15:54:00,75.5,65.4,29.94,NNW,335,3.0,7.0,71,0.00,,,0.01,Wunderground v.1.15,2013-08-02 19:54:00,
2013-08-02 15:56:00,75.2,65.1,29.94,North,349,3.0,7.0,71,0.00,,,0.01,Wunderground v.1.15,2013-08-02 19:56:00,
2013-08-02 15:57:00,75.1,65.1,29.94,NNW,331,3.0,7.0,71,0.00,,,0.01,Wunderground v.1.15,2013-08-02 19:57:00,
2013-08-02 15:58:00,75.1,64.2,29.94,NW,325,3.0,7.0,69,0.00,,,0.01,Wunderground v.1.15,2013-08-02 19:58:00,
2013-08-02 15:59:00,75.1,64.2,29.94,NNW,335,3.0,7.0,69,0.00,,,0.01,Wunderground v.1.15,2013-08-02 19:59:00,
2013-08-02 16:03:00,75.4,63.7,29.94,NW,315,4.0,7.0,67,0.00,,,0.01,Wunderground v.1.15,2013-08-02 20:03:00,
2013-08-02 16:04:00,75.5,63.8,29.94,NNE,15,4.0,7.0,67,0.00,,,0.01,Wunderground v.1.15,2013-08-02 20:04:00,
2013-08-02 16:05:00,75.6,63.4,29.94,NNW,342,4.0,7.0,66,0.00,,,0.01,Wunderground v.1.15,2013-08-02 20:05:00,
2013-08-02 16:07:00,75.7,64.0,29.94,WSW,251,4.0,7.0,67,0.00,,,0.01,Wunderground v.1.15,2013-08-02 20:07:00,
2013-08-02 16:10:00,75.8,63.2,29.94,WNW,283,4.0,7.0,65,0.00,,,0.01,Wunderground v.1.15,2013-08-02 20:10:00,
2013-08-02 16:12:00,75.8,63.2,29.94,NW,307,3.0,7.0,65,0.00,,,0.01,Wunderground v.1.15,2013-08-02 20:12:00,
2013-08-02 16:13:00,75.7,64.0,29.94,WNW,287,3.0,10.0,67,0.00,,,0.01,Wunderground v.1.15,2013-08-02 20:13:00,
2013-08-02 16:14:00,75.7,64.0,29.94,WNW,286,3.0,10.0,67,0.00,,,0.01,Wunderground v.1.15,2013-08-02 20:14:00,
2013-08-02 16:15:00,75.7,64.0,29.94,WNW,284,2.0,10.0,67,0.00,,,0.01,Wunderground v.1.15,2013-08-02 20:15:00,
2013-08-02 16:19:00,75.9,64.6,29.93,WNW,295,1.0,10.0,68,0.00,,,0.01,Wunderground v.1.15,2013-08-02 20:19:00,
2013-08-02 16:20:00,76.0,64.7,29.94,West,262,1.0,10.0,68,0.00,,,0.01,Wunderground v.1.15,2013-08-02 20:20:00,
2013-08-02 16:21:00,76.1,63.9,29.94,NW,325,1.0,10.0,66,0.00,,,0.01,Wunderground v.1.15,2013-08-02 20:21:00,
2013-08-02 16:23:00,76.2,64.4,29.93,WNW,286,1.0,10.0,67,0.00,,,0.01,Wunderground v.1.15,2013-08-02 20:23:00,
2013-08-02 16:24:00,76.3,64.5,29.93,WNW,286,1.0,10.0,67,0.00,,,0.01,Wunderground v.1.15,2013-08-02 20:24:00,
2013-08-02 16:25:00,76.4,64.2,29.93,WNW,285,1.0,10.0,66,0.00,,,0.01,Wunderground v.1.15,2013-08-02 20:25:00,
2013-08-02 16:26:00,76.5,65.1,29.93,West,275,1.0,10.0,68,0.00,,,0.01,Wunderground v.1.15,2013-08-02 20:26:00,
2013-08-02 16:31:00,76.6,63.5,29.93,NW,306,1.0,5.0,64,0.00,,,0.01,Wunderground v.1.15,2013-08-02 20:31:00,
2013-08-02 16:32:00,76.6,64.0,29.94,NW,314,1.0,10.0,65,0.00,,,0.01,Wunderground v.1.15,2013-08-02 20:32:00,
2013-08-02 16:35:00,76.5,63.4,29.93,West,277,2.0,10.0,64,0.00,,,0.01,Wunderground v.1.15,2013-08-02 20:35:00,
2013-08-02 16:36:00,76.5,65.1,29.93,WNW,284,2.0,10.0,68,0.00,,,0.01,Wunderground v.1.15,2013-08-02 20:36:00,
2013-08-02 16:37:00,76.5,64.3,29.93,WNW,289,2.0,10.0,66,0.00,,,0.01,Wunderground v.1.15,2013-08-02 20:37:00,
2013-08-02 16:41:00,76.2,63.6,29.93,NW,326,2.0,10.0,65,0.00,,,0.01,Wunderground v.1.15,2013-08-02 20:41:00,
2013-08-02 16:42:00,76.1,63.9,29.93,NW,326,2.0,10.0,66,0.00,,,0.01,Wunderground v.1.15,2013-08-02 20:42:00,
2013-08-02 16:43:00,75.8,63.6,29.93,West,273,2.0,10.0,66,0.00,,,0.01,Wunderground v.1.15,2013-08-02 20:43:00,
2013-08-02 16:45:00,75.7,62.7,29.93,NW,319,2.0,10.0,64,0.00,,,0.01,Wunderground v.1.15,2013-08-02 20:45:00,
2013-08-02 16:46:00,75.7,63.5,29.93,NW,311,2.0,10.0,66,0.00,,,0.01,Wunderground v.1.15,2013-08-02 20:46:00,
2013-08-02 16:47:00,75.6,63.0,29.93,WNW,282,2.0,10.0,65,0.00,,,0.01,Wunderground v.1.15,2013-08-02 20:47:00,
2013-08-02 16:51:00,75.7,64.8,29.93,WNW,300,2.0,10.0,69,0.00,,,0.01,Wunderground v.1.15,2013-08-02 20:51:00,
2013-08-02 16:52:00,75.7,63.1,29.93,NNW,328,2.0,10.0,65,0.00,,,0.01,Wunderground v.1.15,2013-08-02 20:52:00,
2013-08-02 16:53:00,75.7,63.5,29.93,NW,311,2.0,10.0,66,0.00,,,0.01,Wunderground v.1.15,2013-08-02 20:53:00,
2013-08-02 16:56:00,75.7,63.5,29.93,NW,313,2.0,10.0,66,0.00,,,0.01,Wunderground v.1.15,2013-08-02 20:56:00,
2013-08-02 16:59:00,75.9,64.2,29.93,WNW,288,2.0,10.0,67,0.00,,,0.01,Wunderground v.1.15,2013-08-02 20:59:00,
2013-08-02 17:00:00,76.0,63.8,29.93,WNW,291,2.0,2.0,66,0.00,,,0.01,Wunderground v.1.15,2013-08-02 21:00:00,
2013-08-02 17:02:00,76.2,64.4,29.93,NW,323,1.0,10.0,67,0.00,,,0.01,Wunderground v.1.15,2013-08-02 21:02:00,
2013-08-02 17:06:00,76.4,64.6,29.93,NW,315,1.0,10.0,67,0.00,,,0.01,Wunderground v.1.15,2013-08-02 21:06:00,
2013-08-02 17:07:00,76.5,64.7,29.93,NW,315,1.0,10.0,67,0.00,,,0.01,Wunderground v.1.15,2013-08-02 21:07:00,
2013-08-02 17:10:00,76.6,64.8,29.93,WNW,298,0.0,10.0,67,0.00,,,0.01,Wunderground v.1.15,2013-08-02 21:10:00,
2013-08-02 17:12:00,76.6,64.8,29.93,WNW,298,0.0,10.0,67,0.00,,,0.01,Wunderground v.1.15,2013-08-02 21:12:00,
2013-08-02 17:14:00,76.6,64.8,29.93,NW,311,0.0,10.0,67,0.00,,,0.01,Wunderground v.1.15,2013-08-02 21:14:00,
2013-08-02 17:15:00,76.6,64.4,29.93,WNW,282,1.0,10.0,66,0.00,,,0.01,Wunderground v.1.15,2013-08-02 21:15:00,
2013-08-02 17:21:00,76.4,65.1,29.93,NW,304,1.0,10.0,68,0.00,,,0.01,Wunderground v.1.15,2013-08-02 21:21:00,
2013-08-02 17:22:00,76.3,63.7,29.93,WNW,295,2.0,10.0,65,0.00,,,0.01,Wunderground v.1.15,2013-08-02 21:22:00,
2013-08-02 17:25:00,76.1,63.5,29.93,NW,314,2.0,10.0,65,0.00,,,0.01,Wunderground v.1.15,2013-08-02 21:25:00,
2013-08-02 17:26:00,76.0,63.4,29.93,NW,314,2.0,10.0,65,0.00,,,0.01,Wunderground v.1.15,2013-08-02 21:26:00,
2013-08-02 17:28:00,75.8,64.1,29.93,West,271,2.0,10.0,67,0.00,,,0.01,Wunderground v.1.15,2013-08-02 21:28:00,
2013-08-02 17:29:00,75.7,64.4,29.93,WNW,296,2.0,10.0,68,0.00,,,0.01,Wunderground v.1.15,2013-08-02 21:29:00,
2013-08-02 17:32:00,75.6,63.0,29.93,West,274,3.0,10.0,65,0.00,,,0.01,Wunderground v.1.15,2013-08-02 21:32:00,
2013-08-02 17:33:00,75.5,63.3,29.93,West,274,3.0,10.0,66,0.00,,,0.01,Wunderground v.1.15,2013-08-02 21:33:00,
2013-08-02 17:34:00,75.5,62.9,29.93,WSW,255,3.0,10.0,65,0.00,,,0.01,Wunderground v.1.15,2013-08-02 21:34:00,
2013-08-02 17:38:00,75.8,63.6,29.93,West,281,2.0,10.0,66,0.00,,,0.01,Wunderground v.1.15,2013-08-02 21:38:00,
2013-08-02 17:39:00,75.8,63.6,29.93,West,280,2.0,10.0,66,0.00,,,0.01,Wunderground v.1.15,2013-08-02 21:39:00,
2013-08-02 17:40:00,75.8,64.1,29.93,West,280,2.0,2.0,67,0.00,,,0.01,Wunderground v.1.15,2013-08-02 21:40:00,
2013-08-02 17:41:00,75.8,64.1,29.93,West,280,1.0,10.0,67,0.00,,,0.01,Wunderground v.1.15,2013-08-02 21:41:00,
2013-08-02 17:45:00,76.0,64.2,29.92,NW,313,0.0,10.0,67,0.00,,,0.01,Wunderground v.1.15,2013-08-02 21:45:00,
2013-08-02 17:46:00,76.0,64.7,29.92,WNW,300,0.0,10.0,68,0.00,,,0.01,Wunderground v.1.15,2013-08-02 21:46:00,
2013-08-02 17:47:00,76.0,64.2,29.92,WNW,298,0.0,10.0,67,0.00,,,0.01,Wunderground v.1.15,2013-08-02 21:47:00,
2013-08-02 17:49:00,76.0,64.2,29.92,West,263,0.0,10.0,67,0.00,,,0.01,Wunderground v.1.15,2013-08-02 21:49:00,
2013-08-02 17:51:00,76.0,64.2,29.92,West,281,1.0,8.0,67,0.00,,,0.01,Wunderground v.1.15,2013-08-02 21:51:00,
2013-08-02 17:52:00,76.0,63.4,29.92,NW,315,1.0,8.0,65,0.00,,,0.01,Wunderground v.1.15,2013-08-02 21:52:00,
2013-08-02 17:54:00,76.1,64.3,29.92,NW,306,1.0,8.0,67,0.00,,,0.01,Wunderground v.1.15,2013-08-02 21:54:00,
2013-08-02 17:55:00,76.1,64.3,29.92,NW,310,1.0,8.0,67,0.00,,,0.01,Wunderground v.1.15,2013-08-02 21:55:00,
2013-08-02 17:56:00,76.1,63.9,29.92,NW,319,1.0,8.0,66,0.00,,,0.01,Wunderground v.1.15,2013-08-02 21:56:00,
2013-08-02 17:58:00,76.1,64.3,29.92,NW,311,2.0,8.0,67,0.00,,,0.01,Wunderground v.1.15,2013-08-02 21:58:00,
2013-08-02 18:00:00,76.1,64.3,29.92,WNW,292,1.0,1.0,67,0.00,,,0.01,Wunderground v.1.15,2013-08-02 22:00:00,
2013-08-02 18:01:00,76.0,63.8,29.92,NW,312,1.0,8.0,66,0.00,,,0.01,Wunderground v.1.15,2013-08-02 22:01:00,
2013-08-02 18:04:00,76.0,64.7,29.92,NNE,13,1.0,8.0,68,0.00,,,0.01,Wunderground v.1.15,2013-08-02 22:04:00,
2013-08-02 18:06:00,75.9,63.7,29.92,West,263,1.0,8.0,66,0.00,,,0.01,Wunderground v.1.15,2013-08-02 22:06:00,
2013-08-02 18:08:00,75.9,64.2,29.92,NW,315,1.0,8.0,67,0.00,,,0.01,Wunderground v.1.15,2013-08-02 22:08:00,
2013-08-02 18:09:00,75.9,64.6,29.92,NW,315,1.0,8.0,68,0.00,,,0.01,Wunderground v.1.15,2013-08-02 22:09:00,
2013-08-02 18:11:00,75.9,64.2,29.91,WNW,288,1.0,8.0,67,0.00,,,0.01,Wunderground v.1.15,2013-08-02 22:11:00,
2013-08-02 18:13:00,75.9,64.2,29.91,WNW,301,0.0,11.0,67,0.00,,,0.01,Wunderground v.1.15,2013-08-02 22:13:00,
2013-08-02 18:15:00,75.8,63.2,29.91,WNW,300,0.0,11.0,65,0.00,,,0.01,Wunderground v.1.15,2013-08-02 22:15:00,
2013-08-02 18:16:00,75.8,63.6,29.91,WNW,300,0.0,11.0,66,0.00,,,0.01,Wunderground v.1.15,2013-08-02 22:16:00,
2013-08-02 18:17:00,75.8,64.1,29.91,WNW,300,0.0,11.0,67,0.00,,,0.01,Wunderground v.1.15,2013-08-02 22:17:00,
2013-08-02 18:21:00,75.8,64.1,29.91,NW,307,0.0,11.0,67,0.00,,,0.01,Wunderground v.1.15,2013-08-02 22:21:00,
2013-08-02 18:22:00,75.9,64.6,29.91,NW,306,0.0,11.0,68,0.00,,,0.01,Wunderground v.1.15,2013-08-02 22:22:00,
2013-08-02 18:24:00,75.9,64.2,29.91,WNW,301,0.0,11.0,67,0.00,,,0.01,Wunderground v.1.15,2013-08-02 22:24:00,
2013-08-02 18:27:00,75.9,65.4,29.91,WNW,301,0.0,11.0,70,0.00,,,0.01,Wunderground v.1.15,2013-08-02 22:27:00,
2013-08-02 18:28:00,75.9,65.4,29.91,WNW,300,0.0,11.0,70,0.00,,,0.01,Wunderground v.1.15,2013-08-02 22:28:00,
2013-08-02 18:30:00,75.8,64.1,29.91,WNW,286,0.0,11.0,67,0.00,,,0.01,Wunderground v.1.15,2013-08-02 22:30:00,
2013-08-02 18:31:00,75.8,64.1,29.91,WNW,284,0.0,11.0,67,0.00,,,0.01,Wunderground v.1.15,2013-08-02 22:31:00,
2013-08-02 18:32:00,75.7,63.5,29.91,North,349,0.0,11.0,66,0.00,,,0.01,Wunderground v.1.15,2013-08-02 22:32:00,
2013-08-02 18:33:00,75.6,63.4,29.91,NNW,333,0.0,11.0,66,0.00,,,0.01,Wunderground v.1.15,2013-08-02 22:33:00,
2013-08-02 18:34:00,75.5,63.3,29.91,WNW,287,0.0,11.0,66,0.00,,,0.01,Wunderground v.1.15,2013-08-02 22:34:00,
2013-08-02 18:37:00,75.0,63.3,29.91,West,280,0.0,11.0,67,0.00,,,0.01,Wunderground v.1.15,2013-08-02 22:37:00,
2013-08-02 18:39:00,74.7,63.9,29.91,West,281,0.0,11.0,69,0.00,,,0.01,Wunderground v.1.15,2013-08-02 22:39:00,
2013-08-02 18:40:00,74.6,63.3,29.91,West,281,0.0,11.0,68,0.00,,,0.01,Wunderground v.1.15,2013-08-02 22:40:00,
2013-08-02 18:42:00,74.4,63.6,29.91,West,281,0.0,11.0,69,0.00,,,0.01,Wunderground v.1.15,2013-08-02 22:42:00,
2013-08-02 18:46:00,74.2,63.4,29.91,West,280,0.0,11.0,69,0.00,,,0.01,Wunderground v.1.15,2013-08-02 22:46:00,
2013-08-02 18:47:00,74.2,63.8,29.91,West,281,0.0,11.0,70,0.00,,,0.01,Wunderground v.1.15,2013-08-02 22:47:00,
2013-08-02 18:49:00,74.2,63.4,29.91,WNW,283,0.0,11.0,69,0.00,,,0.01,Wunderground v.1.15,2013-08-02 22:49:00,
2013-08-02 18:52:00,74.2,63.0,29.91,WNW,286,0.0,7.0,68,0.00,,,0.01,Wunderground v.1.15,2013-08-02 22:52:00,
2013-08-02 18:54:00,74.3,63.5,29.91,WNW,286,0.0,7.0,69,0.00,,,0.01,Wunderground v.1.15,2013-08-02 22:54:00,
2013-08-02 18:56:00,74.3,63.5,29.91,WNW,285,0.0,7.0,69,0.00,,,0.01,Wunderground v.1.15,2013-08-02 22:56:00,
2013-08-02 19:00:00,74.4,63.6,29.91,NW,325,0.0,7.0,69,0.00,,,0.01,Wunderground v.1.15,2013-08-02 23:00:00,
2013-08-02 19:01:00,74.4,63.6,29.91,NW,323,0.0,7.0,69,0.00,,,0.01,Wunderground v.1.15,2013-08-02 23:01:00,
2013-08-02 19:02:00,74.3,63.5,29.91,NW,320,0.0,7.0,69,0.00,,,0.01,Wunderground v.1.15,2013-08-02 23:02:00,
2013-08-02 19:03:00,74.3,63.1,29.91,NW,320,0.0,7.0,68,0.00,,,0.01,Wunderground v.1.15,2013-08-02 23:03:00,
2013-08-02 19:04:00,74.3,63.1,29.91,NW,321,0.0,7.0,68,0.00,,,0.01,Wunderground v.1.15,2013-08-02 23:04:00,
2013-08-02 19:09:00,74.1,62.9,29.91,NW,305,0.0,7.0,68,0.00,,,0.01,Wunderground v.1.15,2013-08-02 23:09:00,
2013-08-02 19:10:00,74.0,63.2,29.91,NW,304,0.0,7.0,69,0.00,,,0.01,Wunderground v.1.15,2013-08-02 23:10:00,
2013-08-02 19:11:00,74.0,63.2,29.91,WNW,303,0.0,7.0,69,0.00,,,0.01,Wunderground v.1.15,2013-08-02 23:11:00,
2013-08-02 19:16:00,73.7,62.5,29.91,NW,310,0.0,7.0,68,0.00,,,0.01,Wunderground v.1.15,2013-08-02 23:16:00,
2013-08-02 19:18:00,73.5,62.3,29.91,NW,308,0.0,7.0,68,0.00,,,0.01,Wunderground v.1.15,2013-08-02 23:18:00,
2013-08-02 19:19:00,73.4,62.2,29.91,NW,307,0.0,7.0,68,0.00,,,0.01,Wunderground v.1.15,2013-08-02 23:19:00,
2013-08-02 19:20:00,73.4,62.6,29.92,NW,308,0.0,5.0,69,0.00,,,0.01,Wunderground v.1.15,2013-08-02 23:20:00,
2013-08-02 19:23:00,73.1,62.3,29.91,NW,308,0.0,5.0,69,0.00,,,0.01,Wunderground v.1.15,2013-08-02 23:23:00,
2013-08-02 19:24:00,73.0,62.6,29.91,NW,307,0.0,5.0,70,0.00,,,0.01,Wunderground v.1.15,2013-08-02 23:24:00,
2013-08-02 19:26:00,72.9,62.5,29.91,NW,307,0.0,5.0,70,0.00,,,0.01,Wunderground v.1.15,2013-08-02 23:26:00,
2013-08-02 19:27:00,72.8,62.0,29.92,NW,306,0.0,5.0,69,0.00,,,0.01,Wunderground v.1.15,2013-08-02 23:27:00,
2013-08-02 19:30:00,72.6,62.3,29.92,NW,313,0.0,5.0,70,0.00,,,0.01,Wunderground v.1.15,2013-08-02 23:30:00,
2013-08-02 19:32:00,72.5,62.2,29.92,NW,313,0.0,5.0,70,0.00,,,0.01,Wunderground v.1.15,2013-08-02 23:32:00,
2013-08-02 19:35:00,72.3,62.0,29.92,NW,313,0.0,5.0,70,0.00,,,0.01,Wunderground v.1.15,2013-08-02 23:35:00,
2013-08-02 19:36:00,72.2,62.3,29.92,NW,313,0.0,5.0,71,0.00,,,0.01,Wunderground v.1.15,2013-08-02 23:36:00,
2013-08-02 19:37:00,72.1,62.2,29.92,NW,313,0.0,5.0,71,0.00,,,0.01,Wunderground v.1.15,2013-08-02 23:37:00,
2013-08-02 19:38:00,72.0,62.1,29.92,NW,313,0.0,5.0,71,0.00,,,0.01,Wunderground v.1.15,2013-08-02 23:38:00,
2013-08-02 19:41:00,71.8,61.9,29.92,NW,313,0.0,5.0,71,0.00,,,0.01,Wunderground v.1.15,2013-08-02 23:41:00,
2013-08-02 19:42:00,71.7,62.2,29.92,NW,313,0.0,5.0,72,0.00,,,0.01,Wunderground v.1.15,2013-08-02 23:42:00,
2013-08-02 19:45:00,71.5,62.0,29.92,NW,313,0.0,5.0,72,0.00,,,0.01,Wunderground v.1.15,2013-08-02 23:45:00,
2013-08-02 19:46:00,71.4,62.3,29.93,NW,313,0.0,5.0,73,0.00,,,0.01,Wunderground v.1.15,2013-08-02 23:46:00,
2013-08-02 19:48:00,71.3,61.8,29.93,NW,313,0.0,5.0,72,0.00,,,0.01,Wunderground v.1.15,2013-08-02 23:48:00,
2013-08-02 19:49:00,71.2,61.7,29.93,NW,313,0.0,5.0,72,0.00,,,0.01,Wunderground v.1.15,2013-08-02 23:49:00,
2013-08-02 19:51:00,71.1,62.0,29.93,NW,313,0.0,4.0,73,0.00,,,0.01,Wunderground v.1.15,2013-08-02 23:51:00,
2013-08-02 19:53:00,71.0,61.9,29.93,NW,313,0.0,4.0,73,0.00,,,0.01,Wunderground v.1.15,2013-08-02 23:53:00,
2013-08-02 19:56:00,70.8,61.7,29.93,NW,314,0.0,4.0,73,0.00,,,0.01,Wunderground v.1.15,2013-08-02 23:56:00,
2013-08-02 19:57:00,70.8,61.7,29.93,NW,314,0.0,4.0,73,0.00,,,0.01,Wunderground v.1.15,2013-08-02 23:57:00,
2013-08-02 19:58:00,70.8,61.7,29.93,NW,314,1.0,4.0,73,0.00,,,0.01,Wunderground v.1.15,2013-08-02 23:58:00,
2013-08-02 20:02:00,70.7,61.6,29.93,NW,314,1.0,4.0,73,0.00,,,0.01,Wunderground v.1.15,2013-08-03 00:02:00,
2013-08-02 20:05:00,70.6,61.9,29.93,WNW,287,1.0,4.0,74,0.00,,,0.01,Wunderground v.1.15,2013-08-03 00:05:00,
2013-08-02 20:06:00,70.5,61.8,29.93,WNW,286,1.0,4.0,74,0.00,,,0.01,Wunderground v.1.15,2013-08-03 00:06:00,
2013-08-02 20:07:00,70.5,61.8,29.93,WNW,286,1.0,4.0,74,0.00,,,0.01,Wunderground v.1.15,2013-08-03 00:07:00,
2013-08-02 20:09:00,70.4,61.7,29.93,WNW,286,1.0,4.0,74,0.00,,,0.01,Wunderground v.1.15,2013-08-03 00:09:00,
2013-08-02 20:14:00,70.1,61.4,29.93,NW,305,0.0,4.0,74,0.00,,,0.01,Wunderground v.1.15,2013-08-03 00:14:00,
2013-08-02 20:15:00,70.1,61.0,29.93,NW,315,0.0,4.0,73,0.00,,,0.01,Wunderground v.1.15,2013-08-03 00:15:00,
2013-08-02 20:17:00,70.0,61.3,29.93,NW,315,0.0,4.0,74,0.00,,,0.01,Wunderground v.1.15,2013-08-03 00:17:00,
2013-08-02 20:19:00,69.9,61.2,29.93,NW,315,0.0,4.0,74,0.00,,,0.01,Wunderground v.1.15,2013-08-03 00:19:00,
2013-08-02 20:20:00,69.9,61.2,29.93,NW,314,0.0,4.0,74,0.00,,,0.01,Wunderground v.1.15,2013-08-03 00:20:00,
2013-08-02 20:21:00,69.9,61.2,29.93,NW,314,0.0,4.0,74,0.00,,,0.01,Wunderground v.1.15,2013-08-03 00:21:00,
2013-08-02 20:23:00,69.9,61.2,29.93,NW,313,0.0,4.0,74,0.00,,,0.01,Wunderground v.1.15,2013-08-03 00:23:00,
2013-08-02 20:25:00,69.9,61.2,29.93,NW,313,0.0,4.0,74,0.00,,,0.01,Wunderground v.1.15,2013-08-03 00:25:00,
2013-08-02 20:26:00,69.8,61.1,29.93,NW,313,0.0,4.0,74,0.00,,,0.01,Wunderground v.1.15,2013-08-03 00:26:00,
2013-08-02 20:28:00,69.7,61.0,29.93,NW,313,0.0,4.0,74,0.00,,,0.01,Wunderground v.1.15,2013-08-03 00:28:00,
2013-08-02 20:29:00,69.7,61.0,29.93,NW,313,0.0,4.0,74,0.00,,,0.01,Wunderground v.1.15,2013-08-03 00:29:00,
2013-08-02 20:30:00,69.6,60.9,29.93,NW,313,0.0,4.0,74,0.00,,,0.01,Wunderground v.1.15,2013-08-03 00:30:00,
2013-08-02 20:32:00,69.5,60.5,29.93,NW,313,0.0,4.0,73,0.00,,,0.01,Wunderground v.1.15,2013-08-03 00:32:00,
2013-08-02 20:34:00,69.5,60.5,29.93,NW,313,0.0,4.0,73,0.00,,,0.01,Wunderground v.1.15,2013-08-03 00:34:00,
2013-08-02 20:36:00,69.5,60.8,29.93,NW,313,0.0,4.0,74,0.00,,,0.01,Wunderground v.1.15,2013-08-03 00:36:00,
2013-08-02 20:37:00,69.5,60.8,29.93,NW,313,0.0,4.0,74,0.00,,,0.01,Wunderground v.1.15,2013-08-03 00:37:00,
2013-08-02 20:40:00,69.5,60.8,29.93,NW,313,0.0,4.0,74,0.00,,,0.01,Wunderground v.1.15,2013-08-03 00:40:00,
2013-08-02 20:41:00,69.5,60.8,29.93,NW,313,0.0,4.0,74,0.00,,,0.01,Wunderground v.1.15,2013-08-03 00:41:00,
2013-08-02 20:42:00,69.5,60.8,29.93,NW,313,0.0,4.0,74,0.00,,,0.01,Wunderground v.1.15,2013-08-03 00:42:00,
2013-08-02 20:43:00,69.5,60.8,29.93,NW,313,0.0,4.0,74,0.00,,,0.01,Wunderground v.1.15,2013-08-03 00:43:00,
2013-08-02 20:45:00,69.4,60.8,29.93,NW,313,0.0,4.0,74,0.00,,,0.01,Wunderground v.1.15,2013-08-03 00:45:00,
2013-08-02 20:49:00,69.2,60.9,29.93,NW,313,0.0,4.0,75,0.00,,,0.01,Wunderground v.1.15,2013-08-03 00:49:00,
2013-08-02 20:51:00,69.0,60.7,29.93,NW,313,0.0,1.0,75,0.00,,,0.01,Wunderground v.1.15,2013-08-03 00:51:00,
2013-08-02 20:53:00,68.9,60.6,29.93,NW,313,0.0,1.0,75,0.00,,,0.01,Wunderground v.1.15,2013-08-03 00:53:00,
2013-08-02 20:54:00,68.9,61.0,29.93,NW,313,0.0,1.0,76,0.00,,,0.01,Wunderground v.1.15,2013-08-03 00:54:00,
2013-08-02 20:55:00,68.9,61.4,29.93,NW,313,0.0,1.0,77,0.00,,,0.01,Wunderground v.1.15,2013-08-03 00:55:00,
2013-08-02 20:56:00,68.8,60.9,29.93,NW,313,0.0,1.0,76,0.00,,,0.01,Wunderground v.1.15,2013-08-03 00:56:00,
2013-08-02 20:59:00,68.6,60.7,29.93,NW,313,0.0,1.0,76,0.00,,,0.01,Wunderground v.1.15,2013-08-03 00:59:00,
2013-08-02 21:03:00,68.5,61.0,29.93,NW,313,0.0,1.0,77,0.00,,,0.01,Wunderground v.1.15,2013-08-03 01:03:00,
2013-08-02 21:04:00,68.4,60.9,29.93,NW,313,0.0,1.0,77,0.00,,,0.01,Wunderground v.1.15,2013-08-03 01:04:00,
2013-08-02 21:06:00,68.4,60.9,29.93,NW,313,0.0,1.0,77,0.00,,,0.01,Wunderground v.1.15,2013-08-03 01:06:00,
2013-08-02 21:08:00,68.3,60.8,29.93,NW,313,0.0,1.0,77,0.00,,,0.01,Wunderground v.1.15,2013-08-03 01:08:00,
2013-08-02 21:09:00,68.3,60.8,29.93,NW,313,0.0,1.0,77,0.00,,,0.01,Wunderground v.1.15,2013-08-03 01:09:00,
2013-08-02 21:12:00,68.3,60.8,29.94,NW,313,0.0,1.0,77,0.00,,,0.01,Wunderground v.1.15,2013-08-03 01:12:00,
2013-08-02 21:14:00,68.2,60.7,29.94,NW,313,0.0,1.0,77,0.00,,,0.01,Wunderground v.1.15,2013-08-03 01:14:00,
2013-08-02 21:15:00,68.2,60.7,29.94,NW,313,0.0,1.0,77,0.00,,,0.01,Wunderground v.1.15,2013-08-03 01:15:00,
2013-08-02 21:17:00,68.2,60.7,29.94,NW,312,0.0,1.0,77,0.00,,,0.01,Wunderground v.1.15,2013-08-03 01:17:00,
2013-08-02 21:20:00,68.2,60.7,29.94,NW,312,0.0,1.0,77,0.00,,,0.01,Wunderground v.1.15,2013-08-03 01:20:00,
2013-08-02 21:21:00,68.1,60.6,29.94,NW,311,0.0,1.0,77,0.00,,,0.01,Wunderground v.1.15,2013-08-03 01:21:00,
2013-08-02 21:25:00,67.9,60.8,29.94,NW,312,0.0,1.0,78,0.00,,,0.01,Wunderground v.1.15,2013-08-03 01:25:00,
2013-08-02 21:26:00,67.9,60.8,29.94,NW,311,0.0,1.0,78,0.00,,,0.01,Wunderground v.1.15,2013-08-03 01:26:00,
2013-08-02 21:27:00,67.8,60.7,29.94,NW,312,0.0,1.0,78,0.00,,,0.01,Wunderground v.1.15,2013-08-03 01:27:00,
2013-08-02 21:28:00,67.7,60.6,29.94,NW,312,0.0,1.0,78,0.00,,,0.01,Wunderground v.1.15,2013-08-03 01:28:00,
2013-08-02 21:32:00,67.8,60.7,29.94,NW,312,0.0,1.0,78,0.00,,,0.01,Wunderground v.1.15,2013-08-03 01:32:00,
2013-08-02 21:34:00,67.8,60.7,29.94,NW,312,0.0,1.0,78,0.00,,,0.01,Wunderground v.1.15,2013-08-03 01:34:00,
2013-08-02 21:35:00,67.8,60.7,29.95,NW,312,0.0,1.0,78,0.00,,,0.01,Wunderground v.1.15,2013-08-03 01:35:00,
2013-08-02 21:38:00,67.9,60.4,29.95,WNW,300,0.0,1.0,77,0.00,,,0.01,Wunderground v.1.15,2013-08-03 01:38:00,
2013-08-02 21:40:00,67.8,60.3,29.94,NW,306,0.0,1.0,77,0.00,,,0.01,Wunderground v.1.15,2013-08-03 01:40:00,
2013-08-02 21:41:00,67.9,60.4,29.94,NW,306,1.0,1.0,77,0.00,,,0.01,Wunderground v.1.15,2013-08-03 01:41:00,
2013-08-02 21:42:00,67.9,60.4,29.94,NW,306,1.0,1.0,77,0.00,,,0.01,Wunderground v.1.15,2013-08-03 01:42:00,
2013-08-02 21:43:00,67.9,60.4,29.95,NW,306,1.0,3.0,77,0.00,,,0.01,Wunderground v.1.15,2013-08-03 01:43:00,
2013-08-02 21:44:00,67.9,60.4,29.95,NW,306,1.0,3.0,77,0.00,,,0.01,Wunderground v.1.15,2013-08-03 01:44:00,
2013-08-02 21:47:00,67.9,60.4,29.94,NW,304,0.0,3.0,77,0.00,,,0.01,Wunderground v.1.15,2013-08-03 01:47:00,
2013-08-02 21:51:00,68.0,60.5,29.95,WNW,298,0.0,3.0,77,0.00,,,0.01,Wunderground v.1.15,2013-08-03 01:51:00,
2013-08-02 21:53:00,68.1,60.2,29.94,NW,314,0.0,3.0,76,0.00,,,0.01,Wunderground v.1.15,2013-08-03 01:53:00,
2013-08-02 21:54:00,68.1,60.2,29.94,NW,314,0.0,3.0,76,0.00,,,0.01,Wunderground v.1.15,2013-08-03 01:54:00,
2013-08-02 21:56:00,68.2,60.3,29.95,NW,314,0.0,3.0,76,0.00,,,0.01,Wunderground v.1.15,2013-08-03 01:56:00,
2013-08-02 21:57:00,68.2,60.3,29.94,NW,313,0.0,3.0,76,0.00,,,0.01,Wunderground v.1.15,2013-08-03 01:57:00,
2013-08-02 22:02:00,68.4,60.5,29.95,NW,313,0.0,3.0,76,0.00,,,0.01,Wunderground v.1.15,2013-08-03 02:02:00,
2013-08-02 22:03:00,68.4,60.5,29.95,NW,313,0.0,3.0,76,0.00,,,0.01,Wunderground v.1.15,2013-08-03 02:03:00,
2013-08-02 22:05:00,68.4,60.5,29.95,NW,313,0.0,3.0,76,0.00,,,0.01,Wunderground v.1.15,2013-08-03 02:05:00,
2013-08-02 22:07:00,68.4,60.5,29.95,NW,313,0.0,3.0,76,0.00,,,0.01,Wunderground v.1.15,2013-08-03 02:07:00,
2013-08-02 22:09:00,68.5,60.6,29.95,NW,313,0.0,3.0,76,0.00,,,0.01,Wunderground v.1.15,2013-08-03 02:09:00,
2013-08-02 22:11:00,68.5,60.6,29.95,NW,313,0.0,3.0,76,0.00,,,0.01,Wunderground v.1.15,2013-08-03 02:11:00,
2013-08-02 22:12:00,68.5,60.6,29.95,NW,313,0.0,3.0,76,0.00,,,0.01,Wunderground v.1.15,2013-08-03 02:12:00,
2013-08-02 22:15:00,68.5,60.6,29.95,NW,313,0.0,3.0,76,0.00,,,0.01,Wunderground v.1.15,2013-08-03 02:15:00,
2013-08-02 22:16:00,68.5,60.6,29.95,NW,313,0.0,3.0,76,0.00,,,0.01,Wunderground v.1.15,2013-08-03 02:16:00,
2013-08-02 22:17:00,68.5,60.6,29.95,NW,313,0.0,3.0,76,0.00,,,0.01,Wunderground v.1.15,2013-08-03 02:17:00,
2013-08-02 22:21:00,68.3,60.4,29.95,NW,313,0.0,3.0,76,0.00,,,0.01,Wunderground v.1.15,2013-08-03 02:21:00,
2013-08-02 22:22:00,68.3,60.4,29.94,NW,313,0.0,3.0,76,0.00,,,0.01,Wunderground v.1.15,2013-08-03 02:22:00,
2013-08-02 22:24:00,68.2,60.3,29.94,NW,313,0.0,3.0,76,0.00,,,0.01,Wunderground v.1.15,2013-08-03 02:24:00,
2013-08-02 22:25:00,68.2,60.3,29.94,NW,313,0.0,3.0,76,0.00,,,0.01,Wunderground v.1.15,2013-08-03 02:25:00,
2013-08-02 22:26:00,68.2,60.3,29.94,NW,313,0.0,3.0,76,0.00,,,0.01,Wunderground v.1.15,2013-08-03 02:26:00,
2013-08-02 22:27:00,68.2,60.3,29.94,NW,313,0.0,3.0,76,0.00,,,0.01,Wunderground v.1.15,2013-08-03 02:27:00,
2013-08-02 22:30:00,68.2,60.3,29.94,NW,313,0.0,3.0,76,0.00,,,0.01,Wunderground v.1.15,2013-08-03 02:30:00,
2013-08-02 22:31:00,68.1,60.2,29.94,NW,313,0.0,3.0,76,0.00,,,0.01,Wunderground v.1.15,2013-08-03 02:31:00,
2013-08-02 22:35:00,68.1,60.2,29.95,NW,313,0.0,3.0,76,0.00,,,0.01,Wunderground v.1.15,2013-08-03 02:35:00,
2013-08-02 22:36:00,68.1,60.2,29.95,NW,313,0.0,3.0,76,0.00,,,0.01,Wunderground v.1.15,2013-08-03 02:36:00,
2013-08-02 22:39:00,68.1,60.2,29.95,WNW,300,0.0,3.0,76,0.00,,,0.01,Wunderground v.1.15,2013-08-03 02:39:00,
2013-08-02 22:40:00,68.1,60.2,29.95,WNW,298,0.0,3.0,76,0.00,,,0.01,Wunderground v.1.15,2013-08-03 02:40:00,
2013-08-02 22:41:00,68.1,60.2,29.96,WNW,298,0.0,3.0,76,0.00,,,0.01,Wunderground v.1.15,2013-08-03 02:41:00,
2013-08-02 22:43:00,68.2,60.0,29.96,WNW,300,0.0,3.0,75,0.00,,,0.01,Wunderground v.1.15,2013-08-03 02:43:00,
2013-08-02 22:45:00,68.3,60.1,29.96,NNW,339,0.0,4.0,75,0.00,,,0.01,Wunderground v.1.15,2013-08-03 02:45:00,
2013-08-02 22:47:00,68.4,60.2,29.96,WNW,302,0.0,4.0,75,0.00,,,0.01,Wunderground v.1.15,2013-08-03 02:47:00,
2013-08-02 22:49:00,68.6,60.4,29.96,WNW,302,0.0,4.0,75,0.00,,,0.01,Wunderground v.1.15,2013-08-03 02:49:00,
2013-08-02 22:52:00,68.6,60.4,29.95,WNW,302,0.0,2.0,75,0.00,,,0.01,Wunderground v.1.15,2013-08-03 02:52:00,
2013-08-02 22:53:00,68.6,60.4,29.95,WNW,302,0.0,2.0,75,0.00,,,0.01,Wunderground v.1.15,2013-08-03 02:53:00,
2013-08-02 22:54:00,68.6,60.4,29.95,WNW,302,0.0,2.0,75,0.00,,,0.01,Wunderground v.1.15,2013-08-03 02:54:00,
2013-08-02 22:58:00,68.4,60.5,29.95,WNW,302,0.0,2.0,76,0.00,,,0.01,Wunderground v.1.15,2013-08-03 02:58:00,
2013-08-02 22:59:00,68.3,60.4,29.95,WNW,302,0.0,2.0,76,0.00,,,0.01,Wunderground v.1.15,2013-08-03 02:59:00,
2013-08-02 23:01:00,68.2,60.3,29.95,WNW,302,0.0,2.0,76,0.00,,,0.01,Wunderground v.1.15,2013-08-03 03:01:00,
2013-08-02 23:04:00,68.0,60.2,29.95,WNW,302,0.0,2.0,76,0.00,,,0.01,Wunderground v.1.15,2013-08-03 03:04:00,
2013-08-02 23:06:00,68.0,60.2,29.95,WNW,301,0.0,2.0,76,0.00,,,0.01,Wunderground v.1.15,2013-08-03 03:06:00,
2013-08-02 23:08:00,67.9,60.1,29.95,WNW,300,0.0,2.0,76,0.00,,,0.01,Wunderground v.1.15,2013-08-03 03:08:00,
2013-08-02 23:10:00,67.9,60.1,29.95,WNW,299,0.0,2.0,76,0.00,,,0.01,Wunderground v.1.15,2013-08-03 03:10:00,
2013-08-02 23:12:00,67.8,60.3,29.95,WNW,299,0.0,2.0,77,0.00,,,0.01,Wunderground v.1.15,2013-08-03 03:12:00,
2013-08-02 23:14:00,67.8,60.3,29.95,WNW,298,0.0,5.0,77,0.00,,,0.01,Wunderground v.1.15,2013-08-03 03:14:00,
2013-08-02 23:17:00,67.7,60.2,29.95,NW,308,0.0,5.0,77,0.00,,,0.01,Wunderground v.1.15,2013-08-03 03:17:00,
2013-08-02 23:18:00,67.7,60.2,29.95,WSW,258,0.0,5.0,77,0.00,,,0.01,Wunderground v.1.15,2013-08-03 03:18:00,
2013-08-02 23:20:00,67.7,60.2,29.95,WSW,258,0.0,5.0,77,0.00,,,0.01,Wunderground v.1.15,2013-08-03 03:20:00,
2013-08-02 23:21:00,67.8,60.3,29.95,WSW,258,0.0,5.0,77,0.00,,,0.01,Wunderground v.1.15,2013-08-03 03:21:00,
2013-08-02 23:23:00,67.8,60.3,29.95,WSW,257,0.0,5.0,77,0.00,,,0.01,Wunderground v.1.15,2013-08-03 03:23:00,
2013-08-02 23:26:00,67.8,60.7,29.95,WSW,258,0.0,5.0,78,0.00,,,0.01,Wunderground v.1.15,2013-08-03 03:26:00,
2013-08-02 23:28:00,67.8,60.3,29.95,WSW,257,0.0,5.0,77,0.00,,,0.01,Wunderground v.1.15,2013-08-03 03:28:00,
2013-08-02 23:30:00,67.8,60.3,29.95,WNW,288,0.0,5.0,77,0.00,,,0.01,Wunderground v.1.15,2013-08-03 03:30:00,
2013-08-02 23:32:00,67.8,60.3,29.95,WNW,289,0.0,5.0,77,0.00,,,0.01,Wunderground v.1.15,2013-08-03 03:32:00,
2013-08-02 23:34:00,67.9,60.4,29.95,NW,313,0.0,5.0,77,0.00,,,0.01,Wunderground v.1.15,2013-08-03 03:34:00,
2013-08-02 23:38:00,67.8,60.3,29.95,NW,313,0.0,5.0,77,0.00,,,0.01,Wunderground v.1.15,2013-08-03 03:38:00,
2013-08-02 23:40:00,67.8,60.3,29.95,NW,313,0.0,5.0,77,0.00,,,0.01,Wunderground v.1.15,2013-08-03 03:40:00,
2013-08-02 23:43:00,67.7,60.6,29.95,NW,312,0.0,5.0,78,0.00,,,0.01,Wunderground v.1.15,2013-08-03 03:43:00,
2013-08-02 23:44:00,67.7,60.6,29.95,NW,313,0.0,5.0,78,0.00,,,0.01,Wunderground v.1.15,2013-08-03 03:44:00,
2013-08-02 23:45:00,67.7,60.2,29.95,NW,313,0.0,5.0,77,0.00,,,0.01,Wunderground v.1.15,2013-08-03 03:45:00,
2013-08-02 23:46:00,67.7,60.2,29.95,NW,313,0.0,5.0,77,0.00,,,0.01,Wunderground v.1.15,2013-08-03 03:46:00,
2013-08-02 23:49:00,67.7,60.6,29.96,NW,310,0.0,5.0,78,0.00,,,0.01,Wunderground v.1.15,2013-08-03 03:49:00,
2013-08-02 23:50:00,67.7,60.6,29.95,NW,309,0.0,2.0,78,0.00,,,0.01,Wunderground v.1.15,2013-08-03 03:50:00,
2013-08-02 23:52:00,67.7,60.6,29.96,NW,309,0.0,2.0,78,0.00,,,0.01,Wunderground v.1.15,2013-08-03 03:52:00,
2013-08-02 23:53:00,67.8,60.7,29.95,NW,309,0.0,2.0,78,0.00,,,0.01,Wunderground v.1.15,2013-08-03 03:53:00,
2013-08-02 23:56:00,67.7,60.6,29.96,NW,308,0.0,2.0,78,0.00,,,0.01,Wunderground v.1.15,2013-08-03 03:56:00,
2013-08-02 23:57:00,67.7,60.6,29.96,NW,307,0.0,2.0,78,0.00,,,0.01,Wunderground v.1.15,2013-08-03 03:57:00,